<?xml version="1.0" encoding="UTF-8" standalone="no" ?>
<gpx xmlns="http://www.topografix.com/GPX/1/1" xmlns:xsi="http://www.w3.org/2001/XMLSchema-instance" xsi:schemaLocation="http://www.topografix.com/GPX/1/1 http://www.topografix.com/GPX/1/1/gpx.xsd" version="1.1" creator="VisuGPX - https://www.visugpx.com">
  <metadata>
    <name>Canal de la siagne depuis Etang de Fontmerle</name>
    <desc><![CDATA[Chemin aller Canal de la siagne en partant de l\'étang de Fontmerle]]></desc>
  </metadata>
  <trk>
    <name><![CDATA[Move]]></name>
    <trkseg>
      <trkpt lat="43.59384" lon="7.00655">
        <ele>208</ele>
        <time>2015-02-01T10:24:21.15Z</time>
      </trkpt>
      <trkpt lat="43.59387" lon="7.00654">
        <ele>208</ele>
        <time>2015-02-01T10:24:21.16Z</time>
      </trkpt>
      <trkpt lat="43.59397" lon="7.00652">
        <ele>208</ele>
        <time>2015-02-01T10:24:24.09Z</time>
      </trkpt>
      <trkpt lat="43.59407" lon="7.00651">
        <ele>208</ele>
        <time>2015-02-01T10:24:27.09Z</time>
      </trkpt>
      <trkpt lat="43.59419" lon="7.00649">
        <ele>208</ele>
        <time>2015-02-01T10:24:30.10Z</time>
      </trkpt>
      <trkpt lat="43.5943" lon="7.00649">
        <ele>208</ele>
        <time>2015-02-01T10:24:32.09Z</time>
      </trkpt>
      <trkpt lat="43.59439" lon="7.00648">
        <ele>208</ele>
        <time>2015-02-01T10:24:34.09Z</time>
      </trkpt>
      <trkpt lat="43.59446" lon="7.00645">
        <ele>208</ele>
        <time>2015-02-01T10:24:36.09Z</time>
      </trkpt>
      <trkpt lat="43.59455" lon="7.00639">
        <ele>208</ele>
        <time>2015-02-01T10:24:39.09Z</time>
      </trkpt>
      <trkpt lat="43.59462" lon="7.0063">
        <ele>209</ele>
        <time>2015-02-01T10:24:42.09Z</time>
      </trkpt>
      <trkpt lat="43.59469" lon="7.00621">
        <ele>209</ele>
        <time>2015-02-01T10:24:45.09Z</time>
      </trkpt>
      <trkpt lat="43.59475" lon="7.00613">
        <ele>209</ele>
        <time>2015-02-01T10:24:48.10Z</time>
      </trkpt>
      <trkpt lat="43.59482" lon="7.00606">
        <ele>210</ele>
        <time>2015-02-01T10:24:51.09Z</time>
      </trkpt>
      <trkpt lat="43.5949" lon="7.00604">
        <ele>210</ele>
        <time>2015-02-01T10:24:54.09Z</time>
      </trkpt>
      <trkpt lat="43.59497" lon="7.00605">
        <ele>210</ele>
        <time>2015-02-01T10:24:57.09Z</time>
      </trkpt>
      <trkpt lat="43.59506" lon="7.00605">
        <ele>210</ele>
        <time>2015-02-01T10:25:00.09Z</time>
      </trkpt>
      <trkpt lat="43.59512" lon="7.00605">
        <ele>210</ele>
        <time>2015-02-01T10:25:02.09Z</time>
      </trkpt>
      <trkpt lat="43.59524" lon="7.00606">
        <ele>210</ele>
        <time>2015-02-01T10:25:05.09Z</time>
      </trkpt>
      <trkpt lat="43.59533" lon="7.00602">
        <ele>210</ele>
        <time>2015-02-01T10:25:07.09Z</time>
      </trkpt>
      <trkpt lat="43.59542" lon="7.00594">
        <ele>210</ele>
        <time>2015-02-01T10:25:09.09Z</time>
      </trkpt>
      <trkpt lat="43.59551" lon="7.00584">
        <ele>208</ele>
        <time>2015-02-01T10:25:11.10Z</time>
      </trkpt>
      <trkpt lat="43.59557" lon="7.00576">
        <ele>208</ele>
        <time>2015-02-01T10:25:13.05Z</time>
      </trkpt>
      <trkpt lat="43.59562" lon="7.00567">
        <ele>204.32</ele>
        <time>2015-02-01T10:25:15.09Z</time>
      </trkpt>
      <trkpt lat="43.5957" lon="7.00559">
        <ele>204</ele>
        <time>2015-02-01T10:25:17.09Z</time>
      </trkpt>
      <trkpt lat="43.5958" lon="7.00554">
        <ele>199.4</ele>
        <time>2015-02-01T10:25:20.09Z</time>
      </trkpt>
      <trkpt lat="43.59585" lon="7.00547">
        <ele>197</ele>
        <time>2015-02-01T10:25:28.09Z</time>
      </trkpt>
      <trkpt lat="43.59589" lon="7.00541">
        <ele>197</ele>
        <time>2015-02-01T10:25:45.09Z</time>
      </trkpt>
      <trkpt lat="43.59594" lon="7.00532">
        <ele>197</ele>
        <time>2015-02-01T10:25:49.09Z</time>
      </trkpt>
      <trkpt lat="43.59601" lon="7.00521">
        <ele>193</ele>
        <time>2015-02-01T10:25:51.08Z</time>
      </trkpt>
      <trkpt lat="43.59607" lon="7.00505">
        <ele>193</ele>
        <time>2015-02-01T10:25:53.09Z</time>
      </trkpt>
      <trkpt lat="43.59612" lon="7.00489">
        <ele>186.56</ele>
        <time>2015-02-01T10:25:55.09Z</time>
      </trkpt>
      <trkpt lat="43.59617" lon="7.00474">
        <ele>186</ele>
        <time>2015-02-01T10:25:58.09Z</time>
      </trkpt>
      <trkpt lat="43.59617" lon="7.00484">
        <ele>185</ele>
        <time>2015-02-01T10:26:10.09Z</time>
      </trkpt>
      <trkpt lat="43.59622" lon="7.00491">
        <ele>184</ele>
        <time>2015-02-01T10:26:37.08Z</time>
      </trkpt>
      <trkpt lat="43.59629" lon="7.00494">
        <ele>184</ele>
        <time>2015-02-01T10:26:40.09Z</time>
      </trkpt>
      <trkpt lat="43.59636" lon="7.00498">
        <ele>184</ele>
        <time>2015-02-01T10:26:43.09Z</time>
      </trkpt>
      <trkpt lat="43.59643" lon="7.00499">
        <ele>184</ele>
        <time>2015-02-01T10:26:46.09Z</time>
      </trkpt>
      <trkpt lat="43.5965" lon="7.00502">
        <ele>184</ele>
        <time>2015-02-01T10:26:49.09Z</time>
      </trkpt>
      <trkpt lat="43.59654" lon="7.00506">
        <ele>184</ele>
        <time>2015-02-01T10:27:00.09Z</time>
      </trkpt>
      <trkpt lat="43.59659" lon="7.0051">
        <ele>184</ele>
        <time>2015-02-01T10:27:03.09Z</time>
      </trkpt>
      <trkpt lat="43.59664" lon="7.00513">
        <ele>184</ele>
        <time>2015-02-01T10:27:05.09Z</time>
      </trkpt>
      <trkpt lat="43.5967" lon="7.00517">
        <ele>184</ele>
        <time>2015-02-01T10:27:07.09Z</time>
      </trkpt>
      <trkpt lat="43.59675" lon="7.00521">
        <ele>184</ele>
        <time>2015-02-01T10:27:09.09Z</time>
      </trkpt>
      <trkpt lat="43.59682" lon="7.00526">
        <ele>184</ele>
        <time>2015-02-01T10:27:11.09Z</time>
      </trkpt>
      <trkpt lat="43.5969" lon="7.00531">
        <ele>184</ele>
        <time>2015-02-01T10:27:13.09Z</time>
      </trkpt>
      <trkpt lat="43.59698" lon="7.00536">
        <ele>184</ele>
        <time>2015-02-01T10:27:15.09Z</time>
      </trkpt>
      <trkpt lat="43.59707" lon="7.00542">
        <ele>184</ele>
        <time>2015-02-01T10:27:18.10Z</time>
      </trkpt>
      <trkpt lat="43.59716" lon="7.00544">
        <ele>184</ele>
        <time>2015-02-01T10:27:21.09Z</time>
      </trkpt>
      <trkpt lat="43.59724" lon="7.00549">
        <ele>185</ele>
        <time>2015-02-01T10:27:38.09Z</time>
      </trkpt>
      <trkpt lat="43.59732" lon="7.0055">
        <ele>185</ele>
        <time>2015-02-01T10:27:44.09Z</time>
      </trkpt>
      <trkpt lat="43.5974" lon="7.00547">
        <ele>185</ele>
        <time>2015-02-01T10:27:48.09Z</time>
      </trkpt>
      <trkpt lat="43.59749" lon="7.00546">
        <ele>185</ele>
        <time>2015-02-01T10:27:51.09Z</time>
      </trkpt>
      <trkpt lat="43.59757" lon="7.00543">
        <ele>185</ele>
        <time>2015-02-01T10:27:54.09Z</time>
      </trkpt>
      <trkpt lat="43.59763" lon="7.00542">
        <ele>185</ele>
        <time>2015-02-01T10:27:56.09Z</time>
      </trkpt>
      <trkpt lat="43.59769" lon="7.00541">
        <ele>185</ele>
        <time>2015-02-01T10:27:58.09Z</time>
      </trkpt>
      <trkpt lat="43.59776" lon="7.00539">
        <ele>185</ele>
        <time>2015-02-01T10:28:00.09Z</time>
      </trkpt>
      <trkpt lat="43.59784" lon="7.00537">
        <ele>185</ele>
        <time>2015-02-01T10:28:03.09Z</time>
      </trkpt>
      <trkpt lat="43.59791" lon="7.00533">
        <ele>185</ele>
        <time>2015-02-01T10:28:06.09Z</time>
      </trkpt>
      <trkpt lat="43.59796" lon="7.00526">
        <ele>184</ele>
        <time>2015-02-01T10:28:13.09Z</time>
      </trkpt>
      <trkpt lat="43.59804" lon="7.00522">
        <ele>184</ele>
        <time>2015-02-01T10:28:28.09Z</time>
      </trkpt>
      <trkpt lat="43.59812" lon="7.00524">
        <ele>184</ele>
        <time>2015-02-01T10:28:35.09Z</time>
      </trkpt>
      <trkpt lat="43.59819" lon="7.00531">
        <ele>184</ele>
        <time>2015-02-01T10:28:38.09Z</time>
      </trkpt>
      <trkpt lat="43.59826" lon="7.00537">
        <ele>184</ele>
        <time>2015-02-01T10:28:41.09Z</time>
      </trkpt>
      <trkpt lat="43.59833" lon="7.00542">
        <ele>184</ele>
        <time>2015-02-01T10:28:44.09Z</time>
      </trkpt>
      <trkpt lat="43.59842" lon="7.00546">
        <ele>184</ele>
        <time>2015-02-01T10:28:47.08Z</time>
      </trkpt>
      <trkpt lat="43.59848" lon="7.00546">
        <ele>184</ele>
        <time>2015-02-01T10:28:49.09Z</time>
      </trkpt>
      <trkpt lat="43.59857" lon="7.00547">
        <ele>184</ele>
        <time>2015-02-01T10:28:52.09Z</time>
      </trkpt>
      <trkpt lat="43.59864" lon="7.00548">
        <ele>184</ele>
        <time>2015-02-01T10:28:55.09Z</time>
      </trkpt>
      <trkpt lat="43.59873" lon="7.00547">
        <ele>184</ele>
        <time>2015-02-01T10:28:58.09Z</time>
      </trkpt>
      <trkpt lat="43.59879" lon="7.00542">
        <ele>184</ele>
        <time>2015-02-01T10:29:00.09Z</time>
      </trkpt>
      <trkpt lat="43.59884" lon="7.00537">
        <ele>184</ele>
        <time>2015-02-01T10:29:02.09Z</time>
      </trkpt>
      <trkpt lat="43.5989" lon="7.00533">
        <ele>184</ele>
        <time>2015-02-01T10:29:04.09Z</time>
      </trkpt>
      <trkpt lat="43.59895" lon="7.0053">
        <ele>184</ele>
        <time>2015-02-01T10:29:06.09Z</time>
      </trkpt>
      <trkpt lat="43.59902" lon="7.00528">
        <ele>184</ele>
        <time>2015-02-01T10:29:09.09Z</time>
      </trkpt>
      <trkpt lat="43.59909" lon="7.00526">
        <ele>184</ele>
        <time>2015-02-01T10:29:12.10Z</time>
      </trkpt>
      <trkpt lat="43.59915" lon="7.00525">
        <ele>184</ele>
        <time>2015-02-01T10:29:15.09Z</time>
      </trkpt>
      <trkpt lat="43.59922" lon="7.00524">
        <ele>184</ele>
        <time>2015-02-01T10:29:18.09Z</time>
      </trkpt>
      <trkpt lat="43.59929" lon="7.00522">
        <ele>184</ele>
        <time>2015-02-01T10:29:21.09Z</time>
      </trkpt>
      <trkpt lat="43.59935" lon="7.00523">
        <ele>184</ele>
        <time>2015-02-01T10:29:23.09Z</time>
      </trkpt>
      <trkpt lat="43.5994" lon="7.00525">
        <ele>184</ele>
        <time>2015-02-01T10:29:25.09Z</time>
      </trkpt>
      <trkpt lat="43.59946" lon="7.00526">
        <ele>184</ele>
        <time>2015-02-01T10:29:27.09Z</time>
      </trkpt>
      <trkpt lat="43.59952" lon="7.00528">
        <ele>184</ele>
        <time>2015-02-01T10:29:29.09Z</time>
      </trkpt>
      <trkpt lat="43.59957" lon="7.0053">
        <ele>184</ele>
        <time>2015-02-01T10:29:41.09Z</time>
      </trkpt>
      <trkpt lat="43.59962" lon="7.00534">
        <ele>184</ele>
        <time>2015-02-01T10:30:05.09Z</time>
      </trkpt>
      <trkpt lat="43.59969" lon="7.00542">
        <ele>184</ele>
        <time>2015-02-01T10:30:08.09Z</time>
      </trkpt>
      <trkpt lat="43.59975" lon="7.00549">
        <ele>184</ele>
        <time>2015-02-01T10:30:10.09Z</time>
      </trkpt>
      <trkpt lat="43.5998" lon="7.00557">
        <ele>184</ele>
        <time>2015-02-01T10:30:12.08Z</time>
      </trkpt>
      <trkpt lat="43.59986" lon="7.00564">
        <ele>184</ele>
        <time>2015-02-01T10:30:14.09Z</time>
      </trkpt>
      <trkpt lat="43.59992" lon="7.00569">
        <ele>184</ele>
        <time>2015-02-01T10:30:16.09Z</time>
      </trkpt>
      <trkpt lat="43.60001" lon="7.00573">
        <ele>184</ele>
        <time>2015-02-01T10:30:19.09Z</time>
      </trkpt>
      <trkpt lat="43.60007" lon="7.0058">
        <ele>184</ele>
        <time>2015-02-01T10:30:22.09Z</time>
      </trkpt>
      <trkpt lat="43.60013" lon="7.00587">
        <ele>184</ele>
        <time>2015-02-01T10:30:25.09Z</time>
      </trkpt>
      <trkpt lat="43.60019" lon="7.00594">
        <ele>184</ele>
        <time>2015-02-01T10:30:28.09Z</time>
      </trkpt>
      <trkpt lat="43.60024" lon="7.00603">
        <ele>184</ele>
        <time>2015-02-01T10:30:31.09Z</time>
      </trkpt>
      <trkpt lat="43.60031" lon="7.00612">
        <ele>184</ele>
        <time>2015-02-01T10:30:35.09Z</time>
      </trkpt>
      <trkpt lat="43.60037" lon="7.00626">
        <ele>184</ele>
        <time>2015-02-01T10:30:39.09Z</time>
      </trkpt>
      <trkpt lat="43.60041" lon="7.0064">
        <ele>184</ele>
        <time>2015-02-01T10:30:42.09Z</time>
      </trkpt>
      <trkpt lat="43.60044" lon="7.00654">
        <ele>184</ele>
        <time>2015-02-01T10:30:44.89Z</time>
      </trkpt>
      <trkpt lat="43.6005" lon="7.00664">
        <ele>184</ele>
        <time>2015-02-01T10:30:49.09Z</time>
      </trkpt>
      <trkpt lat="43.60059" lon="7.00667">
        <ele>185</ele>
        <time>2015-02-01T10:30:53.09Z</time>
      </trkpt>
      <trkpt lat="43.60066" lon="7.00665">
        <ele>185</ele>
        <time>2015-02-01T10:30:56.09Z</time>
      </trkpt>
      <trkpt lat="43.60076" lon="7.00665">
        <ele>185</ele>
        <time>2015-02-01T10:30:59.09Z</time>
      </trkpt>
      <trkpt lat="43.60083" lon="7.00664">
        <ele>184.08</ele>
        <time>2015-02-01T10:31:01.09Z</time>
      </trkpt>
      <trkpt lat="43.60089" lon="7.00664">
        <ele>184</ele>
        <time>2015-02-01T10:31:03.09Z</time>
      </trkpt>
      <trkpt lat="43.60096" lon="7.00664">
        <ele>184</ele>
        <time>2015-02-01T10:31:05.09Z</time>
      </trkpt>
      <trkpt lat="43.60103" lon="7.00663">
        <ele>184</ele>
        <time>2015-02-01T10:31:08.09Z</time>
      </trkpt>
      <trkpt lat="43.60109" lon="7.0066">
        <ele>185</ele>
        <time>2015-02-01T10:31:16.09Z</time>
      </trkpt>
      <trkpt lat="43.60117" lon="7.00656">
        <ele>185</ele>
        <time>2015-02-01T10:31:22.09Z</time>
      </trkpt>
      <trkpt lat="43.60125" lon="7.0065">
        <ele>184</ele>
        <time>2015-02-01T10:31:35.09Z</time>
      </trkpt>
      <trkpt lat="43.60132" lon="7.00642">
        <ele>184</ele>
        <time>2015-02-01T10:31:38.09Z</time>
      </trkpt>
      <trkpt lat="43.60141" lon="7.00633">
        <ele>184.92</ele>
        <time>2015-02-01T10:31:41.09Z</time>
      </trkpt>
      <trkpt lat="43.60149" lon="7.00626">
        <ele>185</ele>
        <time>2015-02-01T10:31:44.09Z</time>
      </trkpt>
      <trkpt lat="43.60155" lon="7.00616">
        <ele>185</ele>
        <time>2015-02-01T10:31:48.09Z</time>
      </trkpt>
      <trkpt lat="43.60162" lon="7.00605">
        <ele>185</ele>
        <time>2015-02-01T10:31:51.09Z</time>
      </trkpt>
      <trkpt lat="43.60168" lon="7.00596">
        <ele>185</ele>
        <time>2015-02-01T10:31:53.09Z</time>
      </trkpt>
      <trkpt lat="43.60172" lon="7.00587">
        <ele>185</ele>
        <time>2015-02-01T10:31:55.09Z</time>
      </trkpt>
      <trkpt lat="43.60176" lon="7.00576">
        <ele>185</ele>
        <time>2015-02-01T10:31:58.08Z</time>
      </trkpt>
      <trkpt lat="43.60184" lon="7.00565">
        <ele>184</ele>
        <time>2015-02-01T10:32:02.09Z</time>
      </trkpt>
      <trkpt lat="43.60192" lon="7.00555">
        <ele>184</ele>
        <time>2015-02-01T10:32:06.10Z</time>
      </trkpt>
      <trkpt lat="43.60202" lon="7.00548">
        <ele>184</ele>
        <time>2015-02-01T10:32:10.09Z</time>
      </trkpt>
      <trkpt lat="43.60213" lon="7.00543">
        <ele>184</ele>
        <time>2015-02-01T10:32:13.06Z</time>
      </trkpt>
      <trkpt lat="43.60224" lon="7.00536">
        <ele>184</ele>
        <time>2015-02-01T10:32:17.09Z</time>
      </trkpt>
      <trkpt lat="43.60232" lon="7.00526">
        <ele>184.92</ele>
        <time>2015-02-01T10:32:21.09Z</time>
      </trkpt>
      <trkpt lat="43.60243" lon="7.00525">
        <ele>185</ele>
        <time>2015-02-01T10:32:26.09Z</time>
      </trkpt>
      <trkpt lat="43.60252" lon="7.00528">
        <ele>185</ele>
        <time>2015-02-01T10:32:28.09Z</time>
      </trkpt>
      <trkpt lat="43.60262" lon="7.00531">
        <ele>185</ele>
        <time>2015-02-01T10:32:29.89Z</time>
      </trkpt>
      <trkpt lat="43.60295" lon="7.00533">
        <ele>184</ele>
        <time>2015-02-01T10:32:38.09Z</time>
      </trkpt>
      <trkpt lat="43.60287" lon="7.00522">
        <ele>184</ele>
        <time>2015-02-01T10:32:40.09Z</time>
      </trkpt>
      <trkpt lat="43.60285" lon="7.00509">
        <ele>184</ele>
        <time>2015-02-01T10:32:43.09Z</time>
      </trkpt>
      <trkpt lat="43.60286" lon="7.00502">
        <ele>184</ele>
        <time>2015-02-01T10:32:45.08Z</time>
      </trkpt>
      <trkpt lat="43.60287" lon="7.00495">
        <ele>184.08</ele>
        <time>2015-02-01T10:33:01.09Z</time>
      </trkpt>
      <trkpt lat="43.60289" lon="7.00488">
        <ele>184</ele>
        <time>2015-02-01T10:33:04.09Z</time>
      </trkpt>
      <trkpt lat="43.60289" lon="7.00482">
        <ele>184</ele>
        <time>2015-02-01T10:33:06.10Z</time>
      </trkpt>
      <trkpt lat="43.60291" lon="7.00474">
        <ele>184</ele>
        <time>2015-02-01T10:33:09.09Z</time>
      </trkpt>
      <trkpt lat="43.60292" lon="7.00468">
        <ele>184</ele>
        <time>2015-02-01T10:33:13.09Z</time>
      </trkpt>
      <trkpt lat="43.60296" lon="7.00466">
        <ele>185</ele>
        <time>2015-02-01T10:34:11.09Z</time>
      </trkpt>
      <trkpt lat="43.60302" lon="7.00463">
        <ele>185</ele>
        <time>2015-02-01T10:34:15.09Z</time>
      </trkpt>
      <trkpt lat="43.60309" lon="7.00461">
        <ele>185</ele>
        <time>2015-02-01T10:34:18.11Z</time>
      </trkpt>
      <trkpt lat="43.60319" lon="7.00457">
        <ele>184.08</ele>
        <time>2015-02-01T10:34:21.09Z</time>
      </trkpt>
      <trkpt lat="43.60327" lon="7.00453">
        <ele>184</ele>
        <time>2015-02-01T10:34:23.09Z</time>
      </trkpt>
      <trkpt lat="43.60335" lon="7.00451">
        <ele>184</ele>
        <time>2015-02-01T10:34:25.09Z</time>
      </trkpt>
      <trkpt lat="43.60346" lon="7.00448">
        <ele>184</ele>
        <time>2015-02-01T10:34:27.89Z</time>
      </trkpt>
      <trkpt lat="43.60356" lon="7.0044">
        <ele>184</ele>
        <time>2015-02-01T10:34:30.89Z</time>
      </trkpt>
      <trkpt lat="43.60366" lon="7.00432">
        <ele>184</ele>
        <time>2015-02-01T10:34:34.08Z</time>
      </trkpt>
      <trkpt lat="43.60377" lon="7.00426">
        <ele>184</ele>
        <time>2015-02-01T10:34:37.89Z</time>
      </trkpt>
      <trkpt lat="43.60389" lon="7.00425">
        <ele>184</ele>
        <time>2015-02-01T10:34:42.09Z</time>
      </trkpt>
      <trkpt lat="43.60402" lon="7.00422">
        <ele>184</ele>
        <time>2015-02-01T10:34:45.09Z</time>
      </trkpt>
      <trkpt lat="43.60411" lon="7.00419">
        <ele>184</ele>
        <time>2015-02-01T10:34:47.09Z</time>
      </trkpt>
      <trkpt lat="43.60417" lon="7.00408">
        <ele>184</ele>
        <time>2015-02-01T10:34:50.09Z</time>
      </trkpt>
      <trkpt lat="43.60416" lon="7.00394">
        <ele>184</ele>
        <time>2015-02-01T10:34:53.09Z</time>
      </trkpt>
      <trkpt lat="43.60416" lon="7.0038">
        <ele>184</ele>
        <time>2015-02-01T10:34:57.09Z</time>
      </trkpt>
      <trkpt lat="43.60419" lon="7.00365">
        <ele>184.92</ele>
        <time>2015-02-01T10:35:01.09Z</time>
      </trkpt>
      <trkpt lat="43.60424" lon="7.00353">
        <ele>185</ele>
        <time>2015-02-01T10:35:05.90Z</time>
      </trkpt>
      <trkpt lat="43.60434" lon="7.00346">
        <ele>185</ele>
        <time>2015-02-01T10:35:10.89Z</time>
      </trkpt>
      <trkpt lat="43.60444" lon="7.00342">
        <ele>185</ele>
        <time>2015-02-01T10:35:16.89Z</time>
      </trkpt>
      <trkpt lat="43.60454" lon="7.00342">
        <ele>187</ele>
        <time>2015-02-01T10:35:23.09Z</time>
      </trkpt>
      <trkpt lat="43.60461" lon="7.00339">
        <ele>187</ele>
        <time>2015-02-01T10:35:35.09Z</time>
      </trkpt>
      <trkpt lat="43.60467" lon="7.00328">
        <ele>187</ele>
        <time>2015-02-01T10:35:40.09Z</time>
      </trkpt>
      <trkpt lat="43.60472" lon="7.00318">
        <ele>185</ele>
        <time>2015-02-01T10:35:42.09Z</time>
      </trkpt>
      <trkpt lat="43.60477" lon="7.00306">
        <ele>185</ele>
        <time>2015-02-01T10:35:44.09Z</time>
      </trkpt>
      <trkpt lat="43.60483" lon="7.00294">
        <ele>185</ele>
        <time>2015-02-01T10:35:46.09Z</time>
      </trkpt>
      <trkpt lat="43.6049" lon="7.0028">
        <ele>185</ele>
        <time>2015-02-01T10:35:48.09Z</time>
      </trkpt>
      <trkpt lat="43.60496" lon="7.00265">
        <ele>185</ele>
        <time>2015-02-01T10:35:50.09Z</time>
      </trkpt>
      <trkpt lat="43.605" lon="7.00258">
        <ele>183.16</ele>
        <time>2015-02-01T10:35:51.09Z</time>
      </trkpt>
      <trkpt lat="43.60505" lon="7.00251">
        <ele>183</ele>
        <time>2015-02-01T10:35:52.09Z</time>
      </trkpt>
      <trkpt lat="43.60509" lon="7.00243">
        <ele>183</ele>
        <time>2015-02-01T10:35:53.09Z</time>
      </trkpt>
      <trkpt lat="43.60513" lon="7.00234">
        <ele>183</ele>
        <time>2015-02-01T10:35:54.10Z</time>
      </trkpt>
      <trkpt lat="43.60515" lon="7.00225">
        <ele>183</ele>
        <time>2015-02-01T10:35:55.09Z</time>
      </trkpt>
      <trkpt lat="43.60515" lon="7.00216">
        <ele>180.24</ele>
        <time>2015-02-01T10:35:56.09Z</time>
      </trkpt>
      <trkpt lat="43.60514" lon="7.00207">
        <ele>180</ele>
        <time>2015-02-01T10:35:57.09Z</time>
      </trkpt>
      <trkpt lat="43.6051" lon="7.00199">
        <ele>180</ele>
        <time>2015-02-01T10:35:58.09Z</time>
      </trkpt>
      <trkpt lat="43.60506" lon="7.00192">
        <ele>180</ele>
        <time>2015-02-01T10:35:59.09Z</time>
      </trkpt>
      <trkpt lat="43.60496" lon="7.00182">
        <ele>179.08</ele>
        <time>2015-02-01T10:36:01.09Z</time>
      </trkpt>
      <trkpt lat="43.60491" lon="7.00178">
        <ele>179</ele>
        <time>2015-02-01T10:36:02.09Z</time>
      </trkpt>
      <trkpt lat="43.60486" lon="7.00175">
        <ele>179</ele>
        <time>2015-02-01T10:36:03.09Z</time>
      </trkpt>
      <trkpt lat="43.60481" lon="7.00172">
        <ele>179</ele>
        <time>2015-02-01T10:36:04.09Z</time>
      </trkpt>
      <trkpt lat="43.60476" lon="7.00169">
        <ele>179</ele>
        <time>2015-02-01T10:36:05.09Z</time>
      </trkpt>
      <trkpt lat="43.60468" lon="7.00158">
        <ele>179</ele>
        <time>2015-02-01T10:36:08.09Z</time>
      </trkpt>
      <trkpt lat="43.60464" lon="7.00151">
        <ele>179</ele>
        <time>2015-02-01T10:36:10.09Z</time>
      </trkpt>
      <trkpt lat="43.6046" lon="7.00143">
        <ele>181</ele>
        <time>2015-02-01T10:36:12.09Z</time>
      </trkpt>
      <trkpt lat="43.60457" lon="7.00135">
        <ele>181</ele>
        <time>2015-02-01T10:36:14.09Z</time>
      </trkpt>
      <trkpt lat="43.60456" lon="7.00126">
        <ele>181</ele>
        <time>2015-02-01T10:36:16.09Z</time>
      </trkpt>
      <trkpt lat="43.60456" lon="7.00118">
        <ele>181</ele>
        <time>2015-02-01T10:36:18.10Z</time>
      </trkpt>
      <trkpt lat="43.60457" lon="7.0011">
        <ele>181</ele>
        <time>2015-02-01T10:36:20.09Z</time>
      </trkpt>
      <trkpt lat="43.60458" lon="7.00103">
        <ele>182</ele>
        <time>2015-02-01T10:36:22.09Z</time>
      </trkpt>
      <trkpt lat="43.60459" lon="7.00096">
        <ele>182</ele>
        <time>2015-02-01T10:36:24.09Z</time>
      </trkpt>
      <trkpt lat="43.60461" lon="7.00089">
        <ele>182</ele>
        <time>2015-02-01T10:36:26.09Z</time>
      </trkpt>
      <trkpt lat="43.60464" lon="7.0008">
        <ele>182</ele>
        <time>2015-02-01T10:36:28.09Z</time>
      </trkpt>
      <trkpt lat="43.60467" lon="7.00073">
        <ele>182</ele>
        <time>2015-02-01T10:36:30.09Z</time>
      </trkpt>
      <trkpt lat="43.60469" lon="7.00066">
        <ele>185</ele>
        <time>2015-02-01T10:36:32.09Z</time>
      </trkpt>
      <trkpt lat="43.60472" lon="7.00059">
        <ele>185</ele>
        <time>2015-02-01T10:36:34.09Z</time>
      </trkpt>
      <trkpt lat="43.60475" lon="7.00052">
        <ele>187.79</ele>
        <time>2015-02-01T10:36:36.10Z</time>
      </trkpt>
      <trkpt lat="43.60479" lon="7.00046">
        <ele>188</ele>
        <time>2015-02-01T10:36:38.09Z</time>
      </trkpt>
      <trkpt lat="43.60483" lon="7.00043">
        <ele>188</ele>
        <time>2015-02-01T10:36:40.09Z</time>
      </trkpt>
      <trkpt lat="43.60487" lon="7.00038">
        <ele>188</ele>
        <time>2015-02-01T10:36:42.09Z</time>
      </trkpt>
      <trkpt lat="43.6049" lon="7.00033">
        <ele>188</ele>
        <time>2015-02-01T10:36:44.09Z</time>
      </trkpt>
      <trkpt lat="43.60494" lon="7.00029">
        <ele>189.82</ele>
        <time>2015-02-01T10:36:46.08Z</time>
      </trkpt>
      <trkpt lat="43.60498" lon="7.00025">
        <ele>190</ele>
        <time>2015-02-01T10:36:48.09Z</time>
      </trkpt>
      <trkpt lat="43.60501" lon="7.0002">
        <ele>190</ele>
        <time>2015-02-01T10:36:50.09Z</time>
      </trkpt>
      <trkpt lat="43.60505" lon="7.00016">
        <ele>191</ele>
        <time>2015-02-01T10:36:52.09Z</time>
      </trkpt>
      <trkpt lat="43.60508" lon="7.00012">
        <ele>191</ele>
        <time>2015-02-01T10:36:54.10Z</time>
      </trkpt>
      <trkpt lat="43.60512" lon="7.00003">
        <ele>192</ele>
        <time>2015-02-01T10:36:57.09Z</time>
      </trkpt>
      <trkpt lat="43.60515" lon="6.99997">
        <ele>192</ele>
        <time>2015-02-01T10:36:59.11Z</time>
      </trkpt>
      <trkpt lat="43.60519" lon="6.9999">
        <ele>192</ele>
        <time>2015-02-01T10:37:02.09Z</time>
      </trkpt>
      <trkpt lat="43.60522" lon="6.99983">
        <ele>192</ele>
        <time>2015-02-01T10:37:04.09Z</time>
      </trkpt>
      <trkpt lat="43.60525" lon="6.99974">
        <ele>192</ele>
        <time>2015-02-01T10:37:06.09Z</time>
      </trkpt>
      <trkpt lat="43.60529" lon="6.99962">
        <ele>192</ele>
        <time>2015-02-01T10:37:07.89Z</time>
      </trkpt>
      <trkpt lat="43.60534" lon="6.99951">
        <ele>192</ele>
        <time>2015-02-01T10:37:10.09Z</time>
      </trkpt>
      <trkpt lat="43.60539" lon="6.99938">
        <ele>192</ele>
        <time>2015-02-01T10:37:12.11Z</time>
      </trkpt>
      <trkpt lat="43.60542" lon="6.99932">
        <ele>192</ele>
        <time>2015-02-01T10:37:13.09Z</time>
      </trkpt>
      <trkpt lat="43.60546" lon="6.99925">
        <ele>191.08</ele>
        <time>2015-02-01T10:37:14.09Z</time>
      </trkpt>
      <trkpt lat="43.60551" lon="6.99918">
        <ele>191</ele>
        <time>2015-02-01T10:37:15.09Z</time>
      </trkpt>
      <trkpt lat="43.60557" lon="6.99911">
        <ele>191</ele>
        <time>2015-02-01T10:37:16.08Z</time>
      </trkpt>
      <trkpt lat="43.60563" lon="6.99905">
        <ele>191</ele>
        <time>2015-02-01T10:37:17.09Z</time>
      </trkpt>
      <trkpt lat="43.6057" lon="6.99899">
        <ele>191</ele>
        <time>2015-02-01T10:37:18.09Z</time>
      </trkpt>
      <trkpt lat="43.60576" lon="6.99893">
        <ele>191</ele>
        <time>2015-02-01T10:37:19.09Z</time>
      </trkpt>
      <trkpt lat="43.60583" lon="6.99888">
        <ele>191</ele>
        <time>2015-02-01T10:37:20.09Z</time>
      </trkpt>
      <trkpt lat="43.6059" lon="6.99883">
        <ele>185.48</ele>
        <time>2015-02-01T10:37:21.09Z</time>
      </trkpt>
      <trkpt lat="43.60604" lon="6.99872">
        <ele>182.08</ele>
        <time>2015-02-01T10:37:23.09Z</time>
      </trkpt>
      <trkpt lat="43.60611" lon="6.99865">
        <ele>181.08</ele>
        <time>2015-02-01T10:37:24.09Z</time>
      </trkpt>
      <trkpt lat="43.60617" lon="6.99856">
        <ele>180.07</ele>
        <time>2015-02-01T10:37:25.10Z</time>
      </trkpt>
      <trkpt lat="43.60621" lon="6.99845">
        <ele>180</ele>
        <time>2015-02-01T10:37:26.09Z</time>
      </trkpt>
      <trkpt lat="43.60623" lon="6.99833">
        <ele>179.08</ele>
        <time>2015-02-01T10:37:27.09Z</time>
      </trkpt>
      <trkpt lat="43.60624" lon="6.9982">
        <ele>178.08</ele>
        <time>2015-02-01T10:37:28.09Z</time>
      </trkpt>
      <trkpt lat="43.60625" lon="6.99807">
        <ele>177.08</ele>
        <time>2015-02-01T10:37:29.09Z</time>
      </trkpt>
      <trkpt lat="43.60625" lon="6.99794">
        <ele>176.09</ele>
        <time>2015-02-01T10:37:30.08Z</time>
      </trkpt>
      <trkpt lat="43.60625" lon="6.9978">
        <ele>174.16</ele>
        <time>2015-02-01T10:37:31.09Z</time>
      </trkpt>
      <trkpt lat="43.60625" lon="6.99767">
        <ele>174</ele>
        <time>2015-02-01T10:37:32.09Z</time>
      </trkpt>
      <trkpt lat="43.60625" lon="6.99755">
        <ele>173.08</ele>
        <time>2015-02-01T10:37:33.09Z</time>
      </trkpt>
      <trkpt lat="43.60625" lon="6.99743">
        <ele>173</ele>
        <time>2015-02-01T10:37:34.09Z</time>
      </trkpt>
      <trkpt lat="43.60625" lon="6.99731">
        <ele>173</ele>
        <time>2015-02-01T10:37:35.09Z</time>
      </trkpt>
      <trkpt lat="43.60624" lon="6.9972">
        <ele>173.92</ele>
        <time>2015-02-01T10:37:36.09Z</time>
      </trkpt>
      <trkpt lat="43.60623" lon="6.99709">
        <ele>173.08</ele>
        <time>2015-02-01T10:37:37.09Z</time>
      </trkpt>
      <trkpt lat="43.60622" lon="6.99699">
        <ele>173</ele>
        <time>2015-02-01T10:37:38.10Z</time>
      </trkpt>
      <trkpt lat="43.6062" lon="6.9968">
        <ele>173</ele>
        <time>2015-02-01T10:37:39.89Z</time>
      </trkpt>
      <trkpt lat="43.60618" lon="6.99664">
        <ele>173</ele>
        <time>2015-02-01T10:37:42.09Z</time>
      </trkpt>
      <trkpt lat="43.60615" lon="6.99648">
        <ele>173</ele>
        <time>2015-02-01T10:37:44.09Z</time>
      </trkpt>
      <trkpt lat="43.60611" lon="6.99636">
        <ele>173</ele>
        <time>2015-02-01T10:37:46.09Z</time>
      </trkpt>
      <trkpt lat="43.60608" lon="6.99622">
        <ele>173</ele>
        <time>2015-02-01T10:37:48.09Z</time>
      </trkpt>
      <trkpt lat="43.60604" lon="6.99603">
        <ele>172.08</ele>
        <time>2015-02-01T10:37:51.09Z</time>
      </trkpt>
      <trkpt lat="43.60602" lon="6.99588">
        <ele>172</ele>
        <time>2015-02-01T10:37:53.09Z</time>
      </trkpt>
      <trkpt lat="43.60601" lon="6.99574">
        <ele>172</ele>
        <time>2015-02-01T10:37:55.09Z</time>
      </trkpt>
      <trkpt lat="43.60597" lon="6.99555">
        <ele>172</ele>
        <time>2015-02-01T10:37:58.09Z</time>
      </trkpt>
      <trkpt lat="43.60593" lon="6.99537">
        <ele>169.27</ele>
        <time>2015-02-01T10:38:01.08Z</time>
      </trkpt>
      <trkpt lat="43.60592" lon="6.99523">
        <ele>169</ele>
        <time>2015-02-01T10:38:03.09Z</time>
      </trkpt>
      <trkpt lat="43.60592" lon="6.99509">
        <ele>169</ele>
        <time>2015-02-01T10:38:05.09Z</time>
      </trkpt>
      <trkpt lat="43.60592" lon="6.99496">
        <ele>169</ele>
        <time>2015-02-01T10:38:07.09Z</time>
      </trkpt>
      <trkpt lat="43.60591" lon="6.99482">
        <ele>169</ele>
        <time>2015-02-01T10:38:09.09Z</time>
      </trkpt>
      <trkpt lat="43.60589" lon="6.99471">
        <ele>167.16</ele>
        <time>2015-02-01T10:38:11.09Z</time>
      </trkpt>
      <trkpt lat="43.60587" lon="6.9946">
        <ele>167</ele>
        <time>2015-02-01T10:38:13.09Z</time>
      </trkpt>
      <trkpt lat="43.60585" lon="6.99449">
        <ele>167</ele>
        <time>2015-02-01T10:38:15.09Z</time>
      </trkpt>
      <trkpt lat="43.60585" lon="6.9944">
        <ele>167</ele>
        <time>2015-02-01T10:38:17.09Z</time>
      </trkpt>
      <trkpt lat="43.60588" lon="6.99433">
        <ele>167</ele>
        <time>2015-02-01T10:38:19.09Z</time>
      </trkpt>
      <trkpt lat="43.60592" lon="6.99427">
        <ele>166.08</ele>
        <time>2015-02-01T10:38:21.09Z</time>
      </trkpt>
      <trkpt lat="43.60597" lon="6.99422">
        <ele>166</ele>
        <time>2015-02-01T10:38:23.09Z</time>
      </trkpt>
      <trkpt lat="43.60601" lon="6.99416">
        <ele>166</ele>
        <time>2015-02-01T10:38:25.09Z</time>
      </trkpt>
      <trkpt lat="43.60605" lon="6.99411">
        <ele>166</ele>
        <time>2015-02-01T10:38:27.09Z</time>
      </trkpt>
      <trkpt lat="43.6061" lon="6.99405">
        <ele>166</ele>
        <time>2015-02-01T10:38:30.10Z</time>
      </trkpt>
      <trkpt lat="43.60613" lon="6.99401">
        <ele>168</ele>
        <time>2015-02-01T10:38:32.09Z</time>
      </trkpt>
      <trkpt lat="43.60617" lon="6.99395">
        <ele>168</ele>
        <time>2015-02-01T10:38:35.09Z</time>
      </trkpt>
      <trkpt lat="43.60621" lon="6.99387">
        <ele>168</ele>
        <time>2015-02-01T10:38:39.09Z</time>
      </trkpt>
      <trkpt lat="43.60628" lon="6.99383">
        <ele>171</ele>
        <time>2015-02-01T10:38:43.09Z</time>
      </trkpt>
      <trkpt lat="43.60633" lon="6.99375">
        <ele>173</ele>
        <time>2015-02-01T10:38:47.09Z</time>
      </trkpt>
      <trkpt lat="43.60639" lon="6.99369">
        <ele>173.92</ele>
        <time>2015-02-01T10:38:51.09Z</time>
      </trkpt>
      <trkpt lat="43.60646" lon="6.99364">
        <ele>174</ele>
        <time>2015-02-01T10:38:54.09Z</time>
      </trkpt>
      <trkpt lat="43.60652" lon="6.9936">
        <ele>176</ele>
        <time>2015-02-01T10:38:57.09Z</time>
      </trkpt>
      <trkpt lat="43.60657" lon="6.99356">
        <ele>176</ele>
        <time>2015-02-01T10:39:00.09Z</time>
      </trkpt>
      <trkpt lat="43.60664" lon="6.99351">
        <ele>176</ele>
        <time>2015-02-01T10:39:04.05Z</time>
      </trkpt>
      <trkpt lat="43.6067" lon="6.99346">
        <ele>176</ele>
        <time>2015-02-01T10:39:08.09Z</time>
      </trkpt>
      <trkpt lat="43.60677" lon="6.99338">
        <ele>177</ele>
        <time>2015-02-01T10:39:13.09Z</time>
      </trkpt>
      <trkpt lat="43.60685" lon="6.99331">
        <ele>177</ele>
        <time>2015-02-01T10:39:17.90Z</time>
      </trkpt>
      <trkpt lat="43.60694" lon="6.99325">
        <ele>179</ele>
        <time>2015-02-01T10:39:22.09Z</time>
      </trkpt>
      <trkpt lat="43.60701" lon="6.99322">
        <ele>179</ele>
        <time>2015-02-01T10:39:25.09Z</time>
      </trkpt>
      <trkpt lat="43.60708" lon="6.99318">
        <ele>179</ele>
        <time>2015-02-01T10:39:28.09Z</time>
      </trkpt>
      <trkpt lat="43.60718" lon="6.99313">
        <ele>180</ele>
        <time>2015-02-01T10:39:31.89Z</time>
      </trkpt>
      <trkpt lat="43.6073" lon="6.99307">
        <ele>180</ele>
        <time>2015-02-01T10:39:34.89Z</time>
      </trkpt>
      <trkpt lat="43.60742" lon="6.993">
        <ele>180</ele>
        <time>2015-02-01T10:39:38.09Z</time>
      </trkpt>
      <trkpt lat="43.6075" lon="6.99291">
        <ele>179.09</ele>
        <time>2015-02-01T10:39:41.08Z</time>
      </trkpt>
      <trkpt lat="43.60756" lon="6.99284">
        <ele>179</ele>
        <time>2015-02-01T10:39:43.09Z</time>
      </trkpt>
      <trkpt lat="43.60766" lon="6.99277">
        <ele>179</ele>
        <time>2015-02-01T10:39:46.09Z</time>
      </trkpt>
      <trkpt lat="43.60774" lon="6.99269">
        <ele>179</ele>
        <time>2015-02-01T10:39:49.09Z</time>
      </trkpt>
      <trkpt lat="43.60779" lon="6.99265">
        <ele>179</ele>
        <time>2015-02-01T10:39:51.09Z</time>
      </trkpt>
      <trkpt lat="43.60784" lon="6.99259">
        <ele>179</ele>
        <time>2015-02-01T10:39:54.09Z</time>
      </trkpt>
      <trkpt lat="43.60788" lon="6.99254">
        <ele>179</ele>
        <time>2015-02-01T10:39:57.09Z</time>
      </trkpt>
      <trkpt lat="43.60792" lon="6.99248">
        <ele>179</ele>
        <time>2015-02-01T10:40:00.09Z</time>
      </trkpt>
      <trkpt lat="43.60793" lon="6.99239">
        <ele>181</ele>
        <time>2015-02-01T10:40:03.09Z</time>
      </trkpt>
      <trkpt lat="43.60793" lon="6.99231">
        <ele>181</ele>
        <time>2015-02-01T10:40:06.11Z</time>
      </trkpt>
      <trkpt lat="43.60793" lon="6.99226">
        <ele>181</ele>
        <time>2015-02-01T10:40:08.09Z</time>
      </trkpt>
      <trkpt lat="43.60794" lon="6.99218">
        <ele>181.92</ele>
        <time>2015-02-01T10:40:11.09Z</time>
      </trkpt>
      <trkpt lat="43.60797" lon="6.99214">
        <ele>182</ele>
        <time>2015-02-01T10:40:15.09Z</time>
      </trkpt>
      <trkpt lat="43.60803" lon="6.99216">
        <ele>182</ele>
        <time>2015-02-01T10:40:18.09Z</time>
      </trkpt>
      <trkpt lat="43.6081" lon="6.99218">
        <ele>185.68</ele>
        <time>2015-02-01T10:40:21.09Z</time>
      </trkpt>
      <trkpt lat="43.60816" lon="6.99221">
        <ele>186</ele>
        <time>2015-02-01T10:40:24.09Z</time>
      </trkpt>
      <trkpt lat="43.60821" lon="6.99217">
        <ele>188</ele>
        <time>2015-02-01T10:40:27.09Z</time>
      </trkpt>
      <trkpt lat="43.60822" lon="6.99211">
        <ele>188</ele>
        <time>2015-02-01T10:40:30.09Z</time>
      </trkpt>
      <trkpt lat="43.6082" lon="6.99206">
        <ele>189</ele>
        <time>2015-02-01T10:40:32.10Z</time>
      </trkpt>
      <trkpt lat="43.60818" lon="6.99202">
        <ele>189</ele>
        <time>2015-02-01T10:40:34.09Z</time>
      </trkpt>
      <trkpt lat="43.60816" lon="6.99197">
        <ele>189.92</ele>
        <time>2015-02-01T10:40:36.09Z</time>
      </trkpt>
      <trkpt lat="43.60815" lon="6.99192">
        <ele>190</ele>
        <time>2015-02-01T10:40:38.09Z</time>
      </trkpt>
      <trkpt lat="43.60814" lon="6.99186">
        <ele>190</ele>
        <time>2015-02-01T10:40:40.09Z</time>
      </trkpt>
      <trkpt lat="43.60816" lon="6.99176">
        <ele>190</ele>
        <time>2015-02-01T10:40:43.09Z</time>
      </trkpt>
      <trkpt lat="43.60817" lon="6.99167">
        <ele>190</ele>
        <time>2015-02-01T10:40:45.89Z</time>
      </trkpt>
      <trkpt lat="43.60818" lon="6.99158">
        <ele>190</ele>
        <time>2015-02-01T10:40:49.89Z</time>
      </trkpt>
      <trkpt lat="43.6082" lon="6.99149">
        <ele>192</ele>
        <time>2015-02-01T10:40:53.09Z</time>
      </trkpt>
      <trkpt lat="43.60822" lon="6.99141">
        <ele>192</ele>
        <time>2015-02-01T10:40:57.09Z</time>
      </trkpt>
      <trkpt lat="43.60816" lon="6.99137">
        <ele>192.92</ele>
        <time>2015-02-01T10:41:01.09Z</time>
      </trkpt>
      <trkpt lat="43.60809" lon="6.99131">
        <ele>193</ele>
        <time>2015-02-01T10:41:04.89Z</time>
      </trkpt>
      <trkpt lat="43.60803" lon="6.99123">
        <ele>193</ele>
        <time>2015-02-01T10:41:07.89Z</time>
      </trkpt>
      <trkpt lat="43.60796" lon="6.99116">
        <ele>193</ele>
        <time>2015-02-01T10:41:10.09Z</time>
      </trkpt>
      <trkpt lat="43.6079" lon="6.99105">
        <ele>192</ele>
        <time>2015-02-01T10:41:13.09Z</time>
      </trkpt>
      <trkpt lat="43.60794" lon="6.99094">
        <ele>192</ele>
        <time>2015-02-01T10:41:16.09Z</time>
      </trkpt>
      <trkpt lat="43.60799" lon="6.99087">
        <ele>192</ele>
        <time>2015-02-01T10:41:17.89Z</time>
      </trkpt>
      <trkpt lat="43.60804" lon="6.99079">
        <ele>189.24</ele>
        <time>2015-02-01T10:41:21.05Z</time>
      </trkpt>
      <trkpt lat="43.60812" lon="6.99069">
        <ele>189</ele>
        <time>2015-02-01T10:41:25.09Z</time>
      </trkpt>
      <trkpt lat="43.60818" lon="6.99062">
        <ele>188</ele>
        <time>2015-02-01T10:41:28.09Z</time>
      </trkpt>
      <trkpt lat="43.60824" lon="6.99054">
        <ele>188</ele>
        <time>2015-02-01T10:41:30.89Z</time>
      </trkpt>
      <trkpt lat="43.60828" lon="6.99047">
        <ele>188</ele>
        <time>2015-02-01T10:41:33.89Z</time>
      </trkpt>
      <trkpt lat="43.60835" lon="6.99034">
        <ele>188</ele>
        <time>2015-02-01T10:41:37.89Z</time>
      </trkpt>
      <trkpt lat="43.60838" lon="6.99028">
        <ele>188</ele>
        <time>2015-02-01T10:41:39.89Z</time>
      </trkpt>
      <trkpt lat="43.60842" lon="6.9902">
        <ele>188</ele>
        <time>2015-02-01T10:41:41.89Z</time>
      </trkpt>
      <trkpt lat="43.60844" lon="6.99011">
        <ele>188</ele>
        <time>2015-02-01T10:41:43.89Z</time>
      </trkpt>
      <trkpt lat="43.60847" lon="6.99002">
        <ele>188</ele>
        <time>2015-02-01T10:41:45.89Z</time>
      </trkpt>
      <trkpt lat="43.6085" lon="6.98992">
        <ele>188</ele>
        <time>2015-02-01T10:41:48.09Z</time>
      </trkpt>
      <trkpt lat="43.60852" lon="6.98982">
        <ele>188</ele>
        <time>2015-02-01T10:41:50.09Z</time>
      </trkpt>
      <trkpt lat="43.60854" lon="6.98972">
        <ele>188</ele>
        <time>2015-02-01T10:41:52.09Z</time>
      </trkpt>
      <trkpt lat="43.60857" lon="6.98963">
        <ele>188</ele>
        <time>2015-02-01T10:41:54.09Z</time>
      </trkpt>
      <trkpt lat="43.6086" lon="6.98955">
        <ele>188</ele>
        <time>2015-02-01T10:41:56.09Z</time>
      </trkpt>
      <trkpt lat="43.60864" lon="6.98946">
        <ele>188</ele>
        <time>2015-02-01T10:41:57.89Z</time>
      </trkpt>
      <trkpt lat="43.60867" lon="6.98939">
        <ele>188</ele>
        <time>2015-02-01T10:42:00.09Z</time>
      </trkpt>
      <trkpt lat="43.60869" lon="6.98932">
        <ele>188</ele>
        <time>2015-02-01T10:42:02.09Z</time>
      </trkpt>
      <trkpt lat="43.60871" lon="6.98923">
        <ele>188</ele>
        <time>2015-02-01T10:42:04.09Z</time>
      </trkpt>
      <trkpt lat="43.60873" lon="6.98914">
        <ele>188</ele>
        <time>2015-02-01T10:42:06.10Z</time>
      </trkpt>
      <trkpt lat="43.60875" lon="6.98906">
        <ele>188</ele>
        <time>2015-02-01T10:42:08.11Z</time>
      </trkpt>
      <trkpt lat="43.60877" lon="6.98901">
        <ele>188</ele>
        <time>2015-02-01T10:42:09.08Z</time>
      </trkpt>
      <trkpt lat="43.60878" lon="6.98891">
        <ele>188</ele>
        <time>2015-02-01T10:42:11.09Z</time>
      </trkpt>
      <trkpt lat="43.6088" lon="6.98882">
        <ele>188</ele>
        <time>2015-02-01T10:42:13.09Z</time>
      </trkpt>
      <trkpt lat="43.60882" lon="6.98873">
        <ele>188</ele>
        <time>2015-02-01T10:42:15.09Z</time>
      </trkpt>
      <trkpt lat="43.60883" lon="6.98864">
        <ele>187</ele>
        <time>2015-02-01T10:42:17.09Z</time>
      </trkpt>
      <trkpt lat="43.60884" lon="6.98854">
        <ele>187</ele>
        <time>2015-02-01T10:42:19.09Z</time>
      </trkpt>
      <trkpt lat="43.60886" lon="6.98845">
        <ele>187.93</ele>
        <time>2015-02-01T10:42:21.10Z</time>
      </trkpt>
      <trkpt lat="43.60885" lon="6.98838">
        <ele>188</ele>
        <time>2015-02-01T10:42:23.09Z</time>
      </trkpt>
      <trkpt lat="43.60884" lon="6.9883">
        <ele>188</ele>
        <time>2015-02-01T10:42:25.09Z</time>
      </trkpt>
      <trkpt lat="43.60882" lon="6.98822">
        <ele>188</ele>
        <time>2015-02-01T10:42:27.09Z</time>
      </trkpt>
      <trkpt lat="43.6088" lon="6.98818">
        <ele>188</ele>
        <time>2015-02-01T10:42:28.09Z</time>
      </trkpt>
      <trkpt lat="43.60876" lon="6.98811">
        <ele>188</ele>
        <time>2015-02-01T10:42:30.09Z</time>
      </trkpt>
      <trkpt lat="43.60872" lon="6.98803">
        <ele>188</ele>
        <time>2015-02-01T10:42:32.09Z</time>
      </trkpt>
      <trkpt lat="43.60867" lon="6.98796">
        <ele>188</ele>
        <time>2015-02-01T10:42:34.10Z</time>
      </trkpt>
      <trkpt lat="43.60862" lon="6.9879">
        <ele>188</ele>
        <time>2015-02-01T10:42:36.09Z</time>
      </trkpt>
      <trkpt lat="43.60856" lon="6.98785">
        <ele>188</ele>
        <time>2015-02-01T10:42:38.09Z</time>
      </trkpt>
      <trkpt lat="43.6085" lon="6.98779">
        <ele>187.08</ele>
        <time>2015-02-01T10:42:41.09Z</time>
      </trkpt>
      <trkpt lat="43.60844" lon="6.98772">
        <ele>187</ele>
        <time>2015-02-01T10:42:44.09Z</time>
      </trkpt>
      <trkpt lat="43.60838" lon="6.98764">
        <ele>187</ele>
        <time>2015-02-01T10:42:47.10Z</time>
      </trkpt>
      <trkpt lat="43.60835" lon="6.98754">
        <ele>187</ele>
        <time>2015-02-01T10:42:50.09Z</time>
      </trkpt>
      <trkpt lat="43.60838" lon="6.98743">
        <ele>187</ele>
        <time>2015-02-01T10:42:52.89Z</time>
      </trkpt>
      <trkpt lat="43.60845" lon="6.98734">
        <ele>187</ele>
        <time>2015-02-01T10:42:56.89Z</time>
      </trkpt>
      <trkpt lat="43.60855" lon="6.98729">
        <ele>187</ele>
        <time>2015-02-01T10:43:00.88Z</time>
      </trkpt>
      <trkpt lat="43.60864" lon="6.98725">
        <ele>187</ele>
        <time>2015-02-01T10:43:03.89Z</time>
      </trkpt>
      <trkpt lat="43.60873" lon="6.9872">
        <ele>187</ele>
        <time>2015-02-01T10:43:06.89Z</time>
      </trkpt>
      <trkpt lat="43.6088" lon="6.98716">
        <ele>187</ele>
        <time>2015-02-01T10:43:09.09Z</time>
      </trkpt>
      <trkpt lat="43.60887" lon="6.98712">
        <ele>187</ele>
        <time>2015-02-01T10:43:10.89Z</time>
      </trkpt>
      <trkpt lat="43.60894" lon="6.98709">
        <ele>187</ele>
        <time>2015-02-01T10:43:13.09Z</time>
      </trkpt>
      <trkpt lat="43.60902" lon="6.98706">
        <ele>187</ele>
        <time>2015-02-01T10:43:15.08Z</time>
      </trkpt>
      <trkpt lat="43.6091" lon="6.98702">
        <ele>187</ele>
        <time>2015-02-01T10:43:16.89Z</time>
      </trkpt>
      <trkpt lat="43.60917" lon="6.98698">
        <ele>187</ele>
        <time>2015-02-01T10:43:18.89Z</time>
      </trkpt>
      <trkpt lat="43.60923" lon="6.98694">
        <ele>186.28</ele>
        <time>2015-02-01T10:43:20.89Z</time>
      </trkpt>
      <trkpt lat="43.60933" lon="6.98688">
        <ele>186</ele>
        <time>2015-02-01T10:43:23.89Z</time>
      </trkpt>
      <trkpt lat="43.60943" lon="6.98681">
        <ele>186</ele>
        <time>2015-02-01T10:43:26.89Z</time>
      </trkpt>
      <trkpt lat="43.60953" lon="6.98675">
        <ele>186</ele>
        <time>2015-02-01T10:43:29.90Z</time>
      </trkpt>
      <trkpt lat="43.60961" lon="6.9867">
        <ele>186</ele>
        <time>2015-02-01T10:43:31.85Z</time>
      </trkpt>
      <trkpt lat="43.60969" lon="6.98666">
        <ele>186</ele>
        <time>2015-02-01T10:43:33.89Z</time>
      </trkpt>
      <trkpt lat="43.6098" lon="6.98664">
        <ele>186</ele>
        <time>2015-02-01T10:43:37.09Z</time>
      </trkpt>
      <trkpt lat="43.6099" lon="6.98668">
        <ele>186</ele>
        <time>2015-02-01T10:43:40.09Z</time>
      </trkpt>
      <trkpt lat="43.61" lon="6.98672">
        <ele>186</ele>
        <time>2015-02-01T10:43:43.09Z</time>
      </trkpt>
      <trkpt lat="43.61007" lon="6.98675">
        <ele>186</ele>
        <time>2015-02-01T10:43:45.09Z</time>
      </trkpt>
      <trkpt lat="43.61014" lon="6.98679">
        <ele>186</ele>
        <time>2015-02-01T10:43:46.89Z</time>
      </trkpt>
      <trkpt lat="43.61023" lon="6.98684">
        <ele>186</ele>
        <time>2015-02-01T10:43:48.89Z</time>
      </trkpt>
      <trkpt lat="43.61032" lon="6.98689">
        <ele>186</ele>
        <time>2015-02-01T10:43:50.89Z</time>
      </trkpt>
      <trkpt lat="43.61039" lon="6.98692">
        <ele>186</ele>
        <time>2015-02-01T10:43:52.89Z</time>
      </trkpt>
      <trkpt lat="43.6105" lon="6.98699">
        <ele>186</ele>
        <time>2015-02-01T10:43:55.89Z</time>
      </trkpt>
      <trkpt lat="43.61059" lon="6.98705">
        <ele>186</ele>
        <time>2015-02-01T10:43:58.89Z</time>
      </trkpt>
      <trkpt lat="43.61067" lon="6.98698">
        <ele>186</ele>
        <time>2015-02-01T10:44:02.89Z</time>
      </trkpt>
      <trkpt lat="43.61073" lon="6.98687">
        <ele>186</ele>
        <time>2015-02-01T10:44:06.89Z</time>
      </trkpt>
      <trkpt lat="43.61084" lon="6.98684">
        <ele>186</ele>
        <time>2015-02-01T10:44:11.89Z</time>
      </trkpt>
      <trkpt lat="43.61094" lon="6.98686">
        <ele>186</ele>
        <time>2015-02-01T10:44:15.89Z</time>
      </trkpt>
      <trkpt lat="43.61104" lon="6.98693">
        <ele>186.72</ele>
        <time>2015-02-01T10:44:20.89Z</time>
      </trkpt>
      <trkpt lat="43.61111" lon="6.98703">
        <ele>185</ele>
        <time>2015-02-01T10:45:21.89Z</time>
      </trkpt>
      <trkpt lat="43.61121" lon="6.98707">
        <ele>185</ele>
        <time>2015-02-01T10:45:26.89Z</time>
      </trkpt>
      <trkpt lat="43.61129" lon="6.98717">
        <ele>186</ele>
        <time>2015-02-01T10:45:31.89Z</time>
      </trkpt>
      <trkpt lat="43.61139" lon="6.98727">
        <ele>186</ele>
        <time>2015-02-01T10:45:35.89Z</time>
      </trkpt>
      <trkpt lat="43.61148" lon="6.98737">
        <ele>186</ele>
        <time>2015-02-01T10:45:38.83Z</time>
      </trkpt>
      <trkpt lat="43.61158" lon="6.98748">
        <ele>187</ele>
        <time>2015-02-01T10:45:42.89Z</time>
      </trkpt>
      <trkpt lat="43.61167" lon="6.98756">
        <ele>187</ele>
        <time>2015-02-01T10:45:45.89Z</time>
      </trkpt>
      <trkpt lat="43.61175" lon="6.98765">
        <ele>187.72</ele>
        <time>2015-02-01T10:45:50.89Z</time>
      </trkpt>
      <trkpt lat="43.61182" lon="6.98774">
        <ele>188</ele>
        <time>2015-02-01T10:45:55.89Z</time>
      </trkpt>
      <trkpt lat="43.61191" lon="6.98785">
        <ele>186.56</ele>
        <time>2015-02-01T10:46:00.89Z</time>
      </trkpt>
      <trkpt lat="43.61198" lon="6.98794">
        <ele>186</ele>
        <time>2015-02-01T10:46:04.89Z</time>
      </trkpt>
      <trkpt lat="43.61205" lon="6.98803">
        <ele>186</ele>
        <time>2015-02-01T10:46:09.89Z</time>
      </trkpt>
      <trkpt lat="43.6121" lon="6.98814">
        <ele>187</ele>
        <time>2015-02-01T10:46:29.89Z</time>
      </trkpt>
      <trkpt lat="43.61213" lon="6.98827">
        <ele>187</ele>
        <time>2015-02-01T10:46:33.89Z</time>
      </trkpt>
      <trkpt lat="43.61216" lon="6.98838">
        <ele>187</ele>
        <time>2015-02-01T10:46:41.90Z</time>
      </trkpt>
      <trkpt lat="43.61221" lon="6.98858">
        <ele>187</ele>
        <time>2015-02-01T10:46:52.89Z</time>
      </trkpt>
      <trkpt lat="43.61224" lon="6.98871">
        <ele>187</ele>
        <time>2015-02-01T10:46:54.90Z</time>
      </trkpt>
      <trkpt lat="43.61226" lon="6.98887">
        <ele>187</ele>
        <time>2015-02-01T10:46:57.89Z</time>
      </trkpt>
      <trkpt lat="43.61226" lon="6.98903">
        <ele>187</ele>
        <time>2015-02-01T10:47:00.89Z</time>
      </trkpt>
      <trkpt lat="43.61233" lon="6.98912">
        <ele>187</ele>
        <time>2015-02-01T10:47:05.88Z</time>
      </trkpt>
      <trkpt lat="43.61242" lon="6.98906">
        <ele>187</ele>
        <time>2015-02-01T10:47:10.89Z</time>
      </trkpt>
      <trkpt lat="43.61235" lon="6.98914">
        <ele>187</ele>
        <time>2015-02-01T10:47:26.89Z</time>
      </trkpt>
      <trkpt lat="43.61227" lon="6.98911">
        <ele>186</ele>
        <time>2015-02-01T10:47:33.89Z</time>
      </trkpt>
      <trkpt lat="43.61221" lon="6.98899">
        <ele>186</ele>
        <time>2015-02-01T10:47:40.89Z</time>
      </trkpt>
      <trkpt lat="43.6122" lon="6.98887">
        <ele>186</ele>
        <time>2015-02-01T10:47:47.89Z</time>
      </trkpt>
      <trkpt lat="43.61218" lon="6.98872">
        <ele>186</ele>
        <time>2015-02-01T10:47:52.89Z</time>
      </trkpt>
      <trkpt lat="43.61218" lon="6.98886">
        <ele>186</ele>
        <time>2015-02-01T10:48:17.90Z</time>
      </trkpt>
      <trkpt lat="43.61216" lon="6.989">
        <ele>186</ele>
        <time>2015-02-01T10:48:25.89Z</time>
      </trkpt>
      <trkpt lat="43.61224" lon="6.9891">
        <ele>186</ele>
        <time>2015-02-01T10:48:33.89Z</time>
      </trkpt>
      <trkpt lat="43.61231" lon="6.98912">
        <ele>186</ele>
        <time>2015-02-01T10:48:38.89Z</time>
      </trkpt>
      <trkpt lat="43.61239" lon="6.98908">
        <ele>186</ele>
        <time>2015-02-01T10:49:03.89Z</time>
      </trkpt>
      <trkpt lat="43.61244" lon="6.98901">
        <ele>186</ele>
        <time>2015-02-01T10:49:07.89Z</time>
      </trkpt>
      <trkpt lat="43.61254" lon="6.98893">
        <ele>186</ele>
        <time>2015-02-01T10:49:12.89Z</time>
      </trkpt>
      <trkpt lat="43.61264" lon="6.9889">
        <ele>186</ele>
        <time>2015-02-01T10:49:18.89Z</time>
      </trkpt>
      <trkpt lat="43.61276" lon="6.98888">
        <ele>186</ele>
        <time>2015-02-01T10:49:22.89Z</time>
      </trkpt>
      <trkpt lat="43.61286" lon="6.98887">
        <ele>186</ele>
        <time>2015-02-01T10:49:25.89Z</time>
      </trkpt>
      <trkpt lat="43.61295" lon="6.98885">
        <ele>186</ele>
        <time>2015-02-01T10:49:28.89Z</time>
      </trkpt>
      <trkpt lat="43.61303" lon="6.98878">
        <ele>187</ele>
        <time>2015-02-01T10:49:31.89Z</time>
      </trkpt>
      <trkpt lat="43.61306" lon="6.98871">
        <ele>187</ele>
        <time>2015-02-01T10:49:33.88Z</time>
      </trkpt>
      <trkpt lat="43.61309" lon="6.98862">
        <ele>187</ele>
        <time>2015-02-01T10:49:35.90Z</time>
      </trkpt>
      <trkpt lat="43.61312" lon="6.98853">
        <ele>187</ele>
        <time>2015-02-01T10:49:37.89Z</time>
      </trkpt>
      <trkpt lat="43.61314" lon="6.98844">
        <ele>187</ele>
        <time>2015-02-01T10:49:39.89Z</time>
      </trkpt>
      <trkpt lat="43.61318" lon="6.98833">
        <ele>187</ele>
        <time>2015-02-01T10:49:42.89Z</time>
      </trkpt>
      <trkpt lat="43.61323" lon="6.98824">
        <ele>187</ele>
        <time>2015-02-01T10:49:45.89Z</time>
      </trkpt>
      <trkpt lat="43.61329" lon="6.98816">
        <ele>187</ele>
        <time>2015-02-01T10:49:48.89Z</time>
      </trkpt>
      <trkpt lat="43.61335" lon="6.98808">
        <ele>187</ele>
        <time>2015-02-01T10:49:51.89Z</time>
      </trkpt>
      <trkpt lat="43.6134" lon="6.98798">
        <ele>187</ele>
        <time>2015-02-01T10:49:54.89Z</time>
      </trkpt>
      <trkpt lat="43.61343" lon="6.98787">
        <ele>187</ele>
        <time>2015-02-01T10:49:57.89Z</time>
      </trkpt>
      <trkpt lat="43.61345" lon="6.98777">
        <ele>187</ele>
        <time>2015-02-01T10:49:59.89Z</time>
      </trkpt>
      <trkpt lat="43.61346" lon="6.98768">
        <ele>187</ele>
        <time>2015-02-01T10:50:01.89Z</time>
      </trkpt>
      <trkpt lat="43.61348" lon="6.98758">
        <ele>187</ele>
        <time>2015-02-01T10:50:03.89Z</time>
      </trkpt>
      <trkpt lat="43.61349" lon="6.98749">
        <ele>187</ele>
        <time>2015-02-01T10:50:05.89Z</time>
      </trkpt>
      <trkpt lat="43.61351" lon="6.98739">
        <ele>187</ele>
        <time>2015-02-01T10:50:07.89Z</time>
      </trkpt>
      <trkpt lat="43.61353" lon="6.98729">
        <ele>187</ele>
        <time>2015-02-01T10:50:09.89Z</time>
      </trkpt>
      <trkpt lat="43.61355" lon="6.98715">
        <ele>187</ele>
        <time>2015-02-01T10:50:12.89Z</time>
      </trkpt>
      <trkpt lat="43.61353" lon="6.98704">
        <ele>187</ele>
        <time>2015-02-01T10:50:15.89Z</time>
      </trkpt>
      <trkpt lat="43.6135" lon="6.98693">
        <ele>187</ele>
        <time>2015-02-01T10:50:18.89Z</time>
      </trkpt>
      <trkpt lat="43.61348" lon="6.98678">
        <ele>187</ele>
        <time>2015-02-01T10:50:21.89Z</time>
      </trkpt>
      <trkpt lat="43.61347" lon="6.98662">
        <ele>187</ele>
        <time>2015-02-01T10:50:25.89Z</time>
      </trkpt>
      <trkpt lat="43.61348" lon="6.98647">
        <ele>187</ele>
        <time>2015-02-01T10:50:29.89Z</time>
      </trkpt>
      <trkpt lat="43.61348" lon="6.9863">
        <ele>187</ele>
        <time>2015-02-01T10:50:33.89Z</time>
      </trkpt>
      <trkpt lat="43.6135" lon="6.98614">
        <ele>187</ele>
        <time>2015-02-01T10:50:36.89Z</time>
      </trkpt>
      <trkpt lat="43.61348" lon="6.98599">
        <ele>187</ele>
        <time>2015-02-01T10:50:39.88Z</time>
      </trkpt>
      <trkpt lat="43.61344" lon="6.98586">
        <ele>188</ele>
        <time>2015-02-01T10:50:42.89Z</time>
      </trkpt>
      <trkpt lat="43.61339" lon="6.98571">
        <ele>188</ele>
        <time>2015-02-01T10:50:46.89Z</time>
      </trkpt>
      <trkpt lat="43.61336" lon="6.98556">
        <ele>188</ele>
        <time>2015-02-01T10:50:50.89Z</time>
      </trkpt>
      <trkpt lat="43.61334" lon="6.98545">
        <ele>188</ele>
        <time>2015-02-01T10:50:53.90Z</time>
      </trkpt>
      <trkpt lat="43.61333" lon="6.98527">
        <ele>188</ele>
        <time>2015-02-01T10:50:57.88Z</time>
      </trkpt>
      <trkpt lat="43.61333" lon="6.98513">
        <ele>188</ele>
        <time>2015-02-01T10:51:00.89Z</time>
      </trkpt>
      <trkpt lat="43.61335" lon="6.98496">
        <ele>188</ele>
        <time>2015-02-01T10:51:04.89Z</time>
      </trkpt>
      <trkpt lat="43.61335" lon="6.98478">
        <ele>188</ele>
        <time>2015-02-01T10:51:08.89Z</time>
      </trkpt>
      <trkpt lat="43.61335" lon="6.9847">
        <ele>188</ele>
        <time>2015-02-01T10:51:10.89Z</time>
      </trkpt>
      <trkpt lat="43.61333" lon="6.98461">
        <ele>188</ele>
        <time>2015-02-01T10:51:12.89Z</time>
      </trkpt>
      <trkpt lat="43.61331" lon="6.98454">
        <ele>188</ele>
        <time>2015-02-01T10:51:14.89Z</time>
      </trkpt>
      <trkpt lat="43.61329" lon="6.98448">
        <ele>188</ele>
        <time>2015-02-01T10:51:16.90Z</time>
      </trkpt>
      <trkpt lat="43.61334" lon="6.9844">
        <ele>188</ele>
        <time>2015-02-01T10:51:28.89Z</time>
      </trkpt>
      <trkpt lat="43.61335" lon="6.98429">
        <ele>189</ele>
        <time>2015-02-01T10:51:39.89Z</time>
      </trkpt>
      <trkpt lat="43.61334" lon="6.98418">
        <ele>189</ele>
        <time>2015-02-01T10:51:47.89Z</time>
      </trkpt>
      <trkpt lat="43.6133" lon="6.98407">
        <ele>189</ele>
        <time>2015-02-01T10:51:51.89Z</time>
      </trkpt>
      <trkpt lat="43.6133" lon="6.98389">
        <ele>189</ele>
        <time>2015-02-01T10:51:54.89Z</time>
      </trkpt>
      <trkpt lat="43.61331" lon="6.98371">
        <ele>189</ele>
        <time>2015-02-01T10:51:57.89Z</time>
      </trkpt>
      <trkpt lat="43.61334" lon="6.98361">
        <ele>188</ele>
        <time>2015-02-01T10:52:03.89Z</time>
      </trkpt>
      <trkpt lat="43.61341" lon="6.98356">
        <ele>187</ele>
        <time>2015-02-01T10:52:22.99Z</time>
      </trkpt>
      <trkpt lat="43.61347" lon="6.98351">
        <ele>187</ele>
        <time>2015-02-01T10:52:25.99Z</time>
      </trkpt>
      <trkpt lat="43.61358" lon="6.98346">
        <ele>187</ele>
        <time>2015-02-01T10:52:29.99Z</time>
      </trkpt>
      <trkpt lat="43.61369" lon="6.98345">
        <ele>187</ele>
        <time>2015-02-01T10:52:33.99Z</time>
      </trkpt>
      <trkpt lat="43.61379" lon="6.98345">
        <ele>187</ele>
        <time>2015-02-01T10:52:36.98Z</time>
      </trkpt>
      <trkpt lat="43.6139" lon="6.9834">
        <ele>187</ele>
        <time>2015-02-01T10:52:40.99Z</time>
      </trkpt>
      <trkpt lat="43.61401" lon="6.98334">
        <ele>187</ele>
        <time>2015-02-01T10:52:43.99Z</time>
      </trkpt>
      <trkpt lat="43.61408" lon="6.98322">
        <ele>187</ele>
        <time>2015-02-01T10:52:46.99Z</time>
      </trkpt>
      <trkpt lat="43.61412" lon="6.98309">
        <ele>187</ele>
        <time>2015-02-01T10:52:49.99Z</time>
      </trkpt>
      <trkpt lat="43.61415" lon="6.98296">
        <ele>185</ele>
        <time>2015-02-01T10:53:02.99Z</time>
      </trkpt>
      <trkpt lat="43.61419" lon="6.98281">
        <ele>185</ele>
        <time>2015-02-01T10:53:06.99Z</time>
      </trkpt>
      <trkpt lat="43.61423" lon="6.98267">
        <ele>186.62</ele>
        <time>2015-02-01T10:53:10.98Z</time>
      </trkpt>
      <trkpt lat="43.61429" lon="6.98251">
        <ele>187</ele>
        <time>2015-02-01T10:53:14.99Z</time>
      </trkpt>
      <trkpt lat="43.61436" lon="6.98241">
        <ele>187</ele>
        <time>2015-02-01T10:53:17.99Z</time>
      </trkpt>
      <trkpt lat="43.61445" lon="6.98231">
        <ele>187</ele>
        <time>2015-02-01T10:53:21.99Z</time>
      </trkpt>
      <trkpt lat="43.61457" lon="6.98224">
        <ele>187</ele>
        <time>2015-02-01T10:53:25.99Z</time>
      </trkpt>
      <trkpt lat="43.61469" lon="6.98221">
        <ele>187</ele>
        <time>2015-02-01T10:53:29.99Z</time>
      </trkpt>
      <trkpt lat="43.6148" lon="6.98222">
        <ele>187</ele>
        <time>2015-02-01T10:53:32.99Z</time>
      </trkpt>
      <trkpt lat="43.61488" lon="6.98223">
        <ele>187</ele>
        <time>2015-02-01T10:53:34.99Z</time>
      </trkpt>
      <trkpt lat="43.615" lon="6.98224">
        <ele>187</ele>
        <time>2015-02-01T10:53:37.99Z</time>
      </trkpt>
      <trkpt lat="43.61511" lon="6.98229">
        <ele>187</ele>
        <time>2015-02-01T10:53:40.99Z</time>
      </trkpt>
      <trkpt lat="43.61523" lon="6.98235">
        <ele>187</ele>
        <time>2015-02-01T10:53:43.99Z</time>
      </trkpt>
      <trkpt lat="43.61534" lon="6.98241">
        <ele>187</ele>
        <time>2015-02-01T10:53:46.99Z</time>
      </trkpt>
      <trkpt lat="43.61545" lon="6.98247">
        <ele>186.18</ele>
        <time>2015-02-01T10:53:50.99Z</time>
      </trkpt>
      <trkpt lat="43.61557" lon="6.98254">
        <ele>186</ele>
        <time>2015-02-01T10:53:54.99Z</time>
      </trkpt>
      <trkpt lat="43.61566" lon="6.98261">
        <ele>186</ele>
        <time>2015-02-01T10:53:57.99Z</time>
      </trkpt>
      <trkpt lat="43.61574" lon="6.98271">
        <ele>186</ele>
        <time>2015-02-01T10:54:00.99Z</time>
      </trkpt>
      <trkpt lat="43.6158" lon="6.98277">
        <ele>186</ele>
        <time>2015-02-01T10:54:02.99Z</time>
      </trkpt>
      <trkpt lat="43.61587" lon="6.98282">
        <ele>186</ele>
        <time>2015-02-01T10:54:05Z</time>
      </trkpt>
      <trkpt lat="43.61593" lon="6.98285">
        <ele>186</ele>
        <time>2015-02-01T10:54:06.99Z</time>
      </trkpt>
      <trkpt lat="43.61599" lon="6.98286">
        <ele>186</ele>
        <time>2015-02-01T10:54:08.99Z</time>
      </trkpt>
      <trkpt lat="43.61607" lon="6.98282">
        <ele>187</ele>
        <time>2015-02-01T10:54:11.99Z</time>
      </trkpt>
      <trkpt lat="43.61615" lon="6.98275">
        <ele>187</ele>
        <time>2015-02-01T10:54:14.99Z</time>
      </trkpt>
      <trkpt lat="43.61624" lon="6.98265">
        <ele>187</ele>
        <time>2015-02-01T10:54:18.98Z</time>
      </trkpt>
      <trkpt lat="43.61628" lon="6.98261">
        <ele>186.18</ele>
        <time>2015-02-01T10:54:20.99Z</time>
      </trkpt>
      <trkpt lat="43.61634" lon="6.98256">
        <ele>186</ele>
        <time>2015-02-01T10:54:23.99Z</time>
      </trkpt>
      <trkpt lat="43.61639" lon="6.9825">
        <ele>186</ele>
        <time>2015-02-01T10:54:26.99Z</time>
      </trkpt>
      <trkpt lat="43.61644" lon="6.98244">
        <ele>186</ele>
        <time>2015-02-01T10:54:28.99Z</time>
      </trkpt>
      <trkpt lat="43.6165" lon="6.98239">
        <ele>186</ele>
        <time>2015-02-01T10:54:30.99Z</time>
      </trkpt>
      <trkpt lat="43.61655" lon="6.98234">
        <ele>186</ele>
        <time>2015-02-01T10:54:32.99Z</time>
      </trkpt>
      <trkpt lat="43.61661" lon="6.98229">
        <ele>186</ele>
        <time>2015-02-01T10:54:34.99Z</time>
      </trkpt>
      <trkpt lat="43.61667" lon="6.98225">
        <ele>186</ele>
        <time>2015-02-01T10:54:36.99Z</time>
      </trkpt>
      <trkpt lat="43.61676" lon="6.9822">
        <ele>186</ele>
        <time>2015-02-01T10:54:39.99Z</time>
      </trkpt>
      <trkpt lat="43.61685" lon="6.98218">
        <ele>186</ele>
        <time>2015-02-01T10:54:43.99Z</time>
      </trkpt>
      <trkpt lat="43.61692" lon="6.98218">
        <ele>185</ele>
        <time>2015-02-01T10:54:46.99Z</time>
      </trkpt>
      <trkpt lat="43.617" lon="6.98217">
        <ele>185</ele>
        <time>2015-02-01T10:54:49.99Z</time>
      </trkpt>
      <trkpt lat="43.61708" lon="6.98217">
        <ele>186</ele>
        <time>2015-02-01T10:54:52.99Z</time>
      </trkpt>
      <trkpt lat="43.61717" lon="6.98218">
        <ele>186</ele>
        <time>2015-02-01T10:54:55.99Z</time>
      </trkpt>
      <trkpt lat="43.61724" lon="6.9822">
        <ele>186</ele>
        <time>2015-02-01T10:54:57.99Z</time>
      </trkpt>
      <trkpt lat="43.6173" lon="6.98221">
        <ele>186</ele>
        <time>2015-02-01T10:54:59.99Z</time>
      </trkpt>
      <trkpt lat="43.61739" lon="6.98223">
        <ele>184.18</ele>
        <time>2015-02-01T10:55:02.99Z</time>
      </trkpt>
      <trkpt lat="43.61747" lon="6.98225">
        <ele>184</ele>
        <time>2015-02-01T10:55:04.99Z</time>
      </trkpt>
      <trkpt lat="43.61753" lon="6.98228">
        <ele>184</ele>
        <time>2015-02-01T10:55:06.99Z</time>
      </trkpt>
      <trkpt lat="43.61759" lon="6.9823">
        <ele>184</ele>
        <time>2015-02-01T10:55:08.99Z</time>
      </trkpt>
      <trkpt lat="43.61764" lon="6.98233">
        <ele>185.64</ele>
        <time>2015-02-01T10:55:10.99Z</time>
      </trkpt>
      <trkpt lat="43.61769" lon="6.98236">
        <ele>186</ele>
        <time>2015-02-01T10:55:12.99Z</time>
      </trkpt>
      <trkpt lat="43.61775" lon="6.98239">
        <ele>186</ele>
        <time>2015-02-01T10:55:15Z</time>
      </trkpt>
      <trkpt lat="43.61781" lon="6.98243">
        <ele>186</ele>
        <time>2015-02-01T10:55:16.99Z</time>
      </trkpt>
      <trkpt lat="43.6179" lon="6.98247">
        <ele>186</ele>
        <time>2015-02-01T10:55:19.99Z</time>
      </trkpt>
      <trkpt lat="43.61797" lon="6.98249">
        <ele>186</ele>
        <time>2015-02-01T10:55:22.99Z</time>
      </trkpt>
      <trkpt lat="43.61808" lon="6.98249">
        <ele>186</ele>
        <time>2015-02-01T10:55:28.99Z</time>
      </trkpt>
      <trkpt lat="43.61819" lon="6.98243">
        <ele>186</ele>
        <time>2015-02-01T10:55:33.99Z</time>
      </trkpt>
      <trkpt lat="43.61826" lon="6.9824">
        <ele>186</ele>
        <time>2015-02-01T10:55:36.99Z</time>
      </trkpt>
      <trkpt lat="43.61833" lon="6.98238">
        <ele>186</ele>
        <time>2015-02-01T10:55:39.99Z</time>
      </trkpt>
      <trkpt lat="43.61841" lon="6.98235">
        <ele>186</ele>
        <time>2015-02-01T10:55:42.99Z</time>
      </trkpt>
      <trkpt lat="43.61846" lon="6.98234">
        <ele>186</ele>
        <time>2015-02-01T10:55:44.99Z</time>
      </trkpt>
      <trkpt lat="43.61851" lon="6.98233">
        <ele>186</ele>
        <time>2015-02-01T10:55:46.99Z</time>
      </trkpt>
      <trkpt lat="43.61858" lon="6.98231">
        <ele>186</ele>
        <time>2015-02-01T10:55:49.99Z</time>
      </trkpt>
      <trkpt lat="43.61866" lon="6.98229">
        <ele>187</ele>
        <time>2015-02-01T10:55:52.99Z</time>
      </trkpt>
      <trkpt lat="43.61872" lon="6.98228">
        <ele>187</ele>
        <time>2015-02-01T10:55:55.99Z</time>
      </trkpt>
      <trkpt lat="43.6188" lon="6.98227">
        <ele>186</ele>
        <time>2015-02-01T10:55:58.99Z</time>
      </trkpt>
      <trkpt lat="43.61888" lon="6.98224">
        <ele>186</ele>
        <time>2015-02-01T10:56:01.99Z</time>
      </trkpt>
      <trkpt lat="43.61898" lon="6.98222">
        <ele>186</ele>
        <time>2015-02-01T10:56:05.99Z</time>
      </trkpt>
      <trkpt lat="43.61905" lon="6.98218">
        <ele>185.18</ele>
        <time>2015-02-01T10:56:10.99Z</time>
      </trkpt>
      <trkpt lat="43.61911" lon="6.98208">
        <ele>185</ele>
        <time>2015-02-01T10:56:15.98Z</time>
      </trkpt>
      <trkpt lat="43.61919" lon="6.982">
        <ele>185</ele>
        <time>2015-02-01T10:56:19.99Z</time>
      </trkpt>
      <trkpt lat="43.61928" lon="6.98193">
        <ele>185</ele>
        <time>2015-02-01T10:56:24.99Z</time>
      </trkpt>
      <trkpt lat="43.61939" lon="6.98188">
        <ele>185</ele>
        <time>2015-02-01T10:56:29.99Z</time>
      </trkpt>
      <trkpt lat="43.61951" lon="6.98184">
        <ele>185</ele>
        <time>2015-02-01T10:56:32.99Z</time>
      </trkpt>
      <trkpt lat="43.61961" lon="6.98181">
        <ele>185</ele>
        <time>2015-02-01T10:56:36.99Z</time>
      </trkpt>
      <trkpt lat="43.6197" lon="6.98176">
        <ele>185</ele>
        <time>2015-02-01T10:56:41.99Z</time>
      </trkpt>
      <trkpt lat="43.6198" lon="6.98171">
        <ele>185</ele>
        <time>2015-02-01T10:56:47.99Z</time>
      </trkpt>
      <trkpt lat="43.61988" lon="6.98163">
        <ele>186</ele>
        <time>2015-02-01T10:56:52.99Z</time>
      </trkpt>
      <trkpt lat="43.61995" lon="6.98156">
        <ele>186</ele>
        <time>2015-02-01T10:56:56.99Z</time>
      </trkpt>
      <trkpt lat="43.62002" lon="6.98149">
        <ele>186</ele>
        <time>2015-02-01T10:57:00.99Z</time>
      </trkpt>
      <trkpt lat="43.62009" lon="6.98144">
        <ele>186</ele>
        <time>2015-02-01T10:57:05.99Z</time>
      </trkpt>
      <trkpt lat="43.62016" lon="6.9814">
        <ele>186</ele>
        <time>2015-02-01T10:57:09.99Z</time>
      </trkpt>
      <trkpt lat="43.62022" lon="6.98137">
        <ele>185</ele>
        <time>2015-02-01T10:57:12.99Z</time>
      </trkpt>
      <trkpt lat="43.62028" lon="6.98136">
        <ele>185</ele>
        <time>2015-02-01T10:57:15.99Z</time>
      </trkpt>
      <trkpt lat="43.62034" lon="6.98135">
        <ele>185</ele>
        <time>2015-02-01T10:57:19.99Z</time>
      </trkpt>
      <trkpt lat="43.62039" lon="6.98134">
        <ele>185</ele>
        <time>2015-02-01T10:57:22.99Z</time>
      </trkpt>
      <trkpt lat="43.62044" lon="6.98132">
        <ele>186</ele>
        <time>2015-02-01T10:58:12.99Z</time>
      </trkpt>
      <trkpt lat="43.62048" lon="6.98131">
        <ele>186</ele>
        <time>2015-02-01T10:58:14.99Z</time>
      </trkpt>
      <trkpt lat="43.62055" lon="6.9813">
        <ele>186</ele>
        <time>2015-02-01T10:58:17.99Z</time>
      </trkpt>
      <trkpt lat="43.6206" lon="6.9813">
        <ele>186</ele>
        <time>2015-02-01T10:58:19.99Z</time>
      </trkpt>
      <trkpt lat="43.62067" lon="6.9813">
        <ele>185</ele>
        <time>2015-02-01T10:58:22.98Z</time>
      </trkpt>
      <trkpt lat="43.62072" lon="6.98131">
        <ele>185</ele>
        <time>2015-02-01T10:58:24.99Z</time>
      </trkpt>
      <trkpt lat="43.62078" lon="6.98133">
        <ele>185</ele>
        <time>2015-02-01T10:58:27.99Z</time>
      </trkpt>
      <trkpt lat="43.62085" lon="6.98134">
        <ele>185.82</ele>
        <time>2015-02-01T10:58:30.99Z</time>
      </trkpt>
      <trkpt lat="43.62093" lon="6.98136">
        <ele>186</ele>
        <time>2015-02-01T10:58:33.99Z</time>
      </trkpt>
      <trkpt lat="43.62101" lon="6.98137">
        <ele>186</ele>
        <time>2015-02-01T10:58:36.99Z</time>
      </trkpt>
      <trkpt lat="43.62106" lon="6.98136">
        <ele>186</ele>
        <time>2015-02-01T10:58:38.99Z</time>
      </trkpt>
      <trkpt lat="43.62112" lon="6.98135">
        <ele>186</ele>
        <time>2015-02-01T10:58:40.99Z</time>
      </trkpt>
      <trkpt lat="43.62118" lon="6.98133">
        <ele>186</ele>
        <time>2015-02-01T10:58:42.99Z</time>
      </trkpt>
      <trkpt lat="43.62126" lon="6.98131">
        <ele>186</ele>
        <time>2015-02-01T10:58:45.99Z</time>
      </trkpt>
      <trkpt lat="43.62135" lon="6.98128">
        <ele>185</ele>
        <time>2015-02-01T10:58:48.99Z</time>
      </trkpt>
      <trkpt lat="43.62143" lon="6.98125">
        <ele>185</ele>
        <time>2015-02-01T10:58:51.99Z</time>
      </trkpt>
      <trkpt lat="43.62151" lon="6.98122">
        <ele>185</ele>
        <time>2015-02-01T10:58:55.99Z</time>
      </trkpt>
      <trkpt lat="43.62158" lon="6.9812">
        <ele>185</ele>
        <time>2015-02-01T10:58:59.99Z</time>
      </trkpt>
      <trkpt lat="43.62164" lon="6.98118">
        <ele>184</ele>
        <time>2015-02-01T10:59:08.99Z</time>
      </trkpt>
      <trkpt lat="43.6217" lon="6.98112">
        <ele>185</ele>
        <time>2015-02-01T10:59:16.99Z</time>
      </trkpt>
      <trkpt lat="43.62174" lon="6.98101">
        <ele>185</ele>
        <time>2015-02-01T10:59:20.99Z</time>
      </trkpt>
      <trkpt lat="43.62177" lon="6.98092">
        <ele>185</ele>
        <time>2015-02-01T10:59:23.99Z</time>
      </trkpt>
      <trkpt lat="43.62181" lon="6.98083">
        <ele>185</ele>
        <time>2015-02-01T10:59:27Z</time>
      </trkpt>
      <trkpt lat="43.62187" lon="6.98078">
        <ele>185</ele>
        <time>2015-02-01T10:59:30.99Z</time>
      </trkpt>
      <trkpt lat="43.62193" lon="6.98075">
        <ele>185</ele>
        <time>2015-02-01T10:59:33.99Z</time>
      </trkpt>
      <trkpt lat="43.62202" lon="6.98071">
        <ele>185</ele>
        <time>2015-02-01T10:59:37.99Z</time>
      </trkpt>
      <trkpt lat="43.62212" lon="6.98073">
        <ele>185</ele>
        <time>2015-02-01T10:59:40.99Z</time>
      </trkpt>
      <trkpt lat="43.62217" lon="6.98077">
        <ele>185</ele>
        <time>2015-02-01T10:59:42.99Z</time>
      </trkpt>
      <trkpt lat="43.62222" lon="6.98082">
        <ele>185</ele>
        <time>2015-02-01T10:59:44.99Z</time>
      </trkpt>
      <trkpt lat="43.62229" lon="6.9809">
        <ele>185</ele>
        <time>2015-02-01T10:59:48Z</time>
      </trkpt>
      <trkpt lat="43.62237" lon="6.98097">
        <ele>184.18</ele>
        <time>2015-02-01T10:59:50.99Z</time>
      </trkpt>
      <trkpt lat="43.62242" lon="6.98098">
        <ele>184</ele>
        <time>2015-02-01T10:59:52.99Z</time>
      </trkpt>
      <trkpt lat="43.62249" lon="6.98099">
        <ele>184</ele>
        <time>2015-02-01T10:59:54.99Z</time>
      </trkpt>
      <trkpt lat="43.62255" lon="6.98098">
        <ele>184</ele>
        <time>2015-02-01T10:59:56.99Z</time>
      </trkpt>
      <trkpt lat="43.62265" lon="6.98099">
        <ele>184</ele>
        <time>2015-02-01T11:00:00.98Z</time>
      </trkpt>
      <trkpt lat="43.62272" lon="6.981">
        <ele>184</ele>
        <time>2015-02-01T11:00:04.98Z</time>
      </trkpt>
      <trkpt lat="43.62279" lon="6.98099">
        <ele>184</ele>
        <time>2015-02-01T11:00:07.99Z</time>
      </trkpt>
      <trkpt lat="43.62286" lon="6.98099">
        <ele>184</ele>
        <time>2015-02-01T11:00:10.99Z</time>
      </trkpt>
      <trkpt lat="43.62295" lon="6.98099">
        <ele>184</ele>
        <time>2015-02-01T11:00:14.99Z</time>
      </trkpt>
      <trkpt lat="43.62304" lon="6.98099">
        <ele>184</ele>
        <time>2015-02-01T11:00:17.99Z</time>
      </trkpt>
      <trkpt lat="43.62312" lon="6.981">
        <ele>184</ele>
        <time>2015-02-01T11:00:20.99Z</time>
      </trkpt>
      <trkpt lat="43.62319" lon="6.981">
        <ele>184</ele>
        <time>2015-02-01T11:00:22.99Z</time>
      </trkpt>
      <trkpt lat="43.62326" lon="6.98102">
        <ele>184</ele>
        <time>2015-02-01T11:00:25.99Z</time>
      </trkpt>
      <trkpt lat="43.62334" lon="6.98104">
        <ele>184</ele>
        <time>2015-02-01T11:00:28.99Z</time>
      </trkpt>
      <trkpt lat="43.62341" lon="6.98106">
        <ele>184</ele>
        <time>2015-02-01T11:00:31.99Z</time>
      </trkpt>
      <trkpt lat="43.62349" lon="6.98108">
        <ele>186</ele>
        <time>2015-02-01T11:00:44.99Z</time>
      </trkpt>
      <trkpt lat="43.62359" lon="6.9811">
        <ele>186</ele>
        <time>2015-02-01T11:00:48.99Z</time>
      </trkpt>
      <trkpt lat="43.62367" lon="6.98111">
        <ele>186</ele>
        <time>2015-02-01T11:00:52.99Z</time>
      </trkpt>
      <trkpt lat="43.62373" lon="6.98103">
        <ele>186</ele>
        <time>2015-02-01T11:00:56.99Z</time>
      </trkpt>
      <trkpt lat="43.62374" lon="6.98095">
        <ele>185</ele>
        <time>2015-02-01T11:01:12.99Z</time>
      </trkpt>
      <trkpt lat="43.62375" lon="6.98085">
        <ele>185</ele>
        <time>2015-02-01T11:01:16.99Z</time>
      </trkpt>
      <trkpt lat="43.62376" lon="6.98076">
        <ele>185</ele>
        <time>2015-02-01T11:01:19.99Z</time>
      </trkpt>
      <trkpt lat="43.62376" lon="6.98067">
        <ele>185</ele>
        <time>2015-02-01T11:01:22.99Z</time>
      </trkpt>
      <trkpt lat="43.62378" lon="6.98057">
        <ele>185</ele>
        <time>2015-02-01T11:01:25.99Z</time>
      </trkpt>
      <trkpt lat="43.62382" lon="6.98044">
        <ele>185</ele>
        <time>2015-02-01T11:01:29.99Z</time>
      </trkpt>
      <trkpt lat="43.62387" lon="6.98038">
        <ele>185</ele>
        <time>2015-02-01T11:01:31.99Z</time>
      </trkpt>
      <trkpt lat="43.62392" lon="6.98033">
        <ele>185</ele>
        <time>2015-02-01T11:01:33.98Z</time>
      </trkpt>
      <trkpt lat="43.62397" lon="6.98029">
        <ele>185</ele>
        <time>2015-02-01T11:01:35.99Z</time>
      </trkpt>
      <trkpt lat="43.62403" lon="6.98027">
        <ele>185</ele>
        <time>2015-02-01T11:01:37.99Z</time>
      </trkpt>
      <trkpt lat="43.62409" lon="6.98025">
        <ele>185</ele>
        <time>2015-02-01T11:01:39.99Z</time>
      </trkpt>
      <trkpt lat="43.62416" lon="6.98025">
        <ele>185</ele>
        <time>2015-02-01T11:01:42.99Z</time>
      </trkpt>
      <trkpt lat="43.62422" lon="6.98029">
        <ele>185</ele>
        <time>2015-02-01T11:01:44.99Z</time>
      </trkpt>
      <trkpt lat="43.62428" lon="6.98032">
        <ele>185</ele>
        <time>2015-02-01T11:01:47.01Z</time>
      </trkpt>
      <trkpt lat="43.62435" lon="6.98035">
        <ele>185</ele>
        <time>2015-02-01T11:01:48.99Z</time>
      </trkpt>
      <trkpt lat="43.62442" lon="6.98037">
        <ele>185</ele>
        <time>2015-02-01T11:01:50.95Z</time>
      </trkpt>
      <trkpt lat="43.62447" lon="6.98038">
        <ele>184</ele>
        <time>2015-02-01T11:02:03.99Z</time>
      </trkpt>
      <trkpt lat="43.62454" lon="6.98042">
        <ele>183</ele>
        <time>2015-02-01T11:04:04.99Z</time>
      </trkpt>
      <trkpt lat="43.62461" lon="6.98044">
        <ele>183</ele>
        <time>2015-02-01T11:04:08.99Z</time>
      </trkpt>
      <trkpt lat="43.62468" lon="6.98048">
        <ele>183</ele>
        <time>2015-02-01T11:04:11.99Z</time>
      </trkpt>
      <trkpt lat="43.62478" lon="6.98051">
        <ele>183</ele>
        <time>2015-02-01T11:04:14.99Z</time>
      </trkpt>
      <trkpt lat="43.62488" lon="6.98053">
        <ele>183</ele>
        <time>2015-02-01T11:04:17.99Z</time>
      </trkpt>
      <trkpt lat="43.62497" lon="6.98055">
        <ele>183</ele>
        <time>2015-02-01T11:04:20.99Z</time>
      </trkpt>
      <trkpt lat="43.62506" lon="6.98053">
        <ele>183</ele>
        <time>2015-02-01T11:04:24.99Z</time>
      </trkpt>
      <trkpt lat="43.62515" lon="6.98051">
        <ele>183</ele>
        <time>2015-02-01T11:04:27.99Z</time>
      </trkpt>
      <trkpt lat="43.62523" lon="6.98048">
        <ele>183</ele>
        <time>2015-02-01T11:04:30.99Z</time>
      </trkpt>
      <trkpt lat="43.62531" lon="6.98046">
        <ele>183</ele>
        <time>2015-02-01T11:04:34.99Z</time>
      </trkpt>
      <trkpt lat="43.62539" lon="6.98046">
        <ele>183</ele>
        <time>2015-02-01T11:04:37.99Z</time>
      </trkpt>
      <trkpt lat="43.62548" lon="6.98042">
        <ele>183</ele>
        <time>2015-02-01T11:04:40.99Z</time>
      </trkpt>
      <trkpt lat="43.62552" lon="6.98031">
        <ele>183</ele>
        <time>2015-02-01T11:04:44.99Z</time>
      </trkpt>
      <trkpt lat="43.62557" lon="6.98022">
        <ele>183</ele>
        <time>2015-02-01T11:04:47.99Z</time>
      </trkpt>
      <trkpt lat="43.6256" lon="6.98011">
        <ele>183</ele>
        <time>2015-02-01T11:04:56.99Z</time>
      </trkpt>
      <trkpt lat="43.62564" lon="6.97999">
        <ele>183</ele>
        <time>2015-02-01T11:05:00.99Z</time>
      </trkpt>
      <trkpt lat="43.62569" lon="6.97993">
        <ele>183</ele>
        <time>2015-02-01T11:05:04.99Z</time>
      </trkpt>
      <trkpt lat="43.6258" lon="6.97991">
        <ele>183</ele>
        <time>2015-02-01T11:05:09.99Z</time>
      </trkpt>
      <trkpt lat="43.62588" lon="6.97993">
        <ele>184</ele>
        <time>2015-02-01T11:05:12Z</time>
      </trkpt>
      <trkpt lat="43.62598" lon="6.97995">
        <ele>184</ele>
        <time>2015-02-01T11:05:13.99Z</time>
      </trkpt>
      <trkpt lat="43.62608" lon="6.97996">
        <ele>184</ele>
        <time>2015-02-01T11:05:15.99Z</time>
      </trkpt>
      <trkpt lat="43.62618" lon="6.97988">
        <ele>184</ele>
        <time>2015-02-01T11:05:18.99Z</time>
      </trkpt>
      <trkpt lat="43.62628" lon="6.97979">
        <ele>184</ele>
        <time>2015-02-01T11:05:21.99Z</time>
      </trkpt>
      <trkpt lat="43.62637" lon="6.97979">
        <ele>184</ele>
        <time>2015-02-01T11:05:24.99Z</time>
      </trkpt>
      <trkpt lat="43.62648" lon="6.97982">
        <ele>184</ele>
        <time>2015-02-01T11:05:27.99Z</time>
      </trkpt>
      <trkpt lat="43.62656" lon="6.97984">
        <ele>184</ele>
        <time>2015-02-01T11:05:30Z</time>
      </trkpt>
      <trkpt lat="43.62662" lon="6.97992">
        <ele>183</ele>
        <time>2015-02-01T11:05:32.98Z</time>
      </trkpt>
      <trkpt lat="43.62665" lon="6.98009">
        <ele>183</ele>
        <time>2015-02-01T11:05:36.99Z</time>
      </trkpt>
      <trkpt lat="43.62673" lon="6.98013">
        <ele>183</ele>
        <time>2015-02-01T11:05:46.99Z</time>
      </trkpt>
      <trkpt lat="43.62678" lon="6.98005">
        <ele>184</ele>
        <time>2015-02-01T11:05:51.98Z</time>
      </trkpt>
      <trkpt lat="43.6267" lon="6.98015">
        <ele>184</ele>
        <time>2015-02-01T11:06:07.99Z</time>
      </trkpt>
      <trkpt lat="43.62676" lon="6.98011">
        <ele>184</ele>
        <time>2015-02-01T11:06:17.99Z</time>
      </trkpt>
      <trkpt lat="43.62681" lon="6.98">
        <ele>184</ele>
        <time>2015-02-01T11:06:28.99Z</time>
      </trkpt>
      <trkpt lat="43.62689" lon="6.9799">
        <ele>184</ele>
        <time>2015-02-01T11:06:33.99Z</time>
      </trkpt>
      <trkpt lat="43.62695" lon="6.97978">
        <ele>184</ele>
        <time>2015-02-01T11:06:37.99Z</time>
      </trkpt>
      <trkpt lat="43.62702" lon="6.97963">
        <ele>184</ele>
        <time>2015-02-01T11:06:41.99Z</time>
      </trkpt>
      <trkpt lat="43.62714" lon="6.97956">
        <ele>184</ele>
        <time>2015-02-01T11:06:45.98Z</time>
      </trkpt>
      <trkpt lat="43.62725" lon="6.97955">
        <ele>184</ele>
        <time>2015-02-01T11:06:48.99Z</time>
      </trkpt>
      <trkpt lat="43.62735" lon="6.9796">
        <ele>184</ele>
        <time>2015-02-01T11:06:50.99Z</time>
      </trkpt>
      <trkpt lat="43.62746" lon="6.97965">
        <ele>184</ele>
        <time>2015-02-01T11:06:53.99Z</time>
      </trkpt>
      <trkpt lat="43.62757" lon="6.97968">
        <ele>184</ele>
        <time>2015-02-01T11:06:56.99Z</time>
      </trkpt>
      <trkpt lat="43.62769" lon="6.97966">
        <ele>184</ele>
        <time>2015-02-01T11:06:59.99Z</time>
      </trkpt>
      <trkpt lat="43.6278" lon="6.97961">
        <ele>184</ele>
        <time>2015-02-01T11:07:02.99Z</time>
      </trkpt>
      <trkpt lat="43.62791" lon="6.97958">
        <ele>184</ele>
        <time>2015-02-01T11:07:06.99Z</time>
      </trkpt>
      <trkpt lat="43.62801" lon="6.97961">
        <ele>184</ele>
        <time>2015-02-01T11:07:09.99Z</time>
      </trkpt>
      <trkpt lat="43.62813" lon="6.97965">
        <ele>184</ele>
        <time>2015-02-01T11:07:12.99Z</time>
      </trkpt>
      <trkpt lat="43.62825" lon="6.97968">
        <ele>184</ele>
        <time>2015-02-01T11:07:15.99Z</time>
      </trkpt>
      <trkpt lat="43.62831" lon="6.97957">
        <ele>183</ele>
        <time>2015-02-01T11:07:24Z</time>
      </trkpt>
      <trkpt lat="43.62831" lon="6.9794">
        <ele>184</ele>
        <time>2015-02-01T11:07:33.99Z</time>
      </trkpt>
      <trkpt lat="43.62834" lon="6.97926">
        <ele>184</ele>
        <time>2015-02-01T11:07:40.99Z</time>
      </trkpt>
      <trkpt lat="43.62843" lon="6.97919">
        <ele>184</ele>
        <time>2015-02-01T11:07:46.99Z</time>
      </trkpt>
      <trkpt lat="43.62851" lon="6.97913">
        <ele>183</ele>
        <time>2015-02-01T11:07:52.99Z</time>
      </trkpt>
      <trkpt lat="43.62855" lon="6.97911">
        <ele>183</ele>
        <time>2015-02-01T11:07:56.98Z</time>
      </trkpt>
      <trkpt lat="43.6286" lon="6.97909">
        <ele>183</ele>
        <time>2015-02-01T11:08:00.99Z</time>
      </trkpt>
      <trkpt lat="43.62864" lon="6.97907">
        <ele>183</ele>
        <time>2015-02-01T11:08:02.99Z</time>
      </trkpt>
      <trkpt lat="43.62868" lon="6.97904">
        <ele>183</ele>
        <time>2015-02-01T11:08:05.99Z</time>
      </trkpt>
      <trkpt lat="43.62869" lon="6.97899">
        <ele>183</ele>
        <time>2015-02-01T11:08:07.99Z</time>
      </trkpt>
      <trkpt lat="43.6287" lon="6.97892">
        <ele>183</ele>
        <time>2015-02-01T11:08:09.99Z</time>
      </trkpt>
      <trkpt lat="43.62869" lon="6.97885">
        <ele>184</ele>
        <time>2015-02-01T11:08:11.99Z</time>
      </trkpt>
      <trkpt lat="43.62869" lon="6.97872">
        <ele>184</ele>
        <time>2015-02-01T11:08:15.99Z</time>
      </trkpt>
      <trkpt lat="43.62871" lon="6.97859">
        <ele>184</ele>
        <time>2015-02-01T11:08:18.99Z</time>
      </trkpt>
      <trkpt lat="43.62872" lon="6.9785">
        <ele>184</ele>
        <time>2015-02-01T11:08:20.99Z</time>
      </trkpt>
      <trkpt lat="43.62873" lon="6.97837">
        <ele>184</ele>
        <time>2015-02-01T11:08:23.99Z</time>
      </trkpt>
      <trkpt lat="43.62877" lon="6.97826">
        <ele>184</ele>
        <time>2015-02-01T11:08:26.99Z</time>
      </trkpt>
      <trkpt lat="43.62882" lon="6.97814">
        <ele>184</ele>
        <time>2015-02-01T11:08:29.99Z</time>
      </trkpt>
      <trkpt lat="43.62887" lon="6.97805">
        <ele>183</ele>
        <time>2015-02-01T11:08:31.99Z</time>
      </trkpt>
      <trkpt lat="43.62896" lon="6.97796">
        <ele>183</ele>
        <time>2015-02-01T11:08:34.99Z</time>
      </trkpt>
      <trkpt lat="43.62904" lon="6.9779">
        <ele>183</ele>
        <time>2015-02-01T11:08:37.99Z</time>
      </trkpt>
      <trkpt lat="43.62913" lon="6.97783">
        <ele>183</ele>
        <time>2015-02-01T11:08:40.99Z</time>
      </trkpt>
      <trkpt lat="43.62917" lon="6.97774">
        <ele>183</ele>
        <time>2015-02-01T11:08:46.99Z</time>
      </trkpt>
      <trkpt lat="43.62912" lon="6.97767">
        <ele>183</ele>
        <time>2015-02-01T11:08:53.99Z</time>
      </trkpt>
      <trkpt lat="43.62907" lon="6.9776">
        <ele>183.82</ele>
        <time>2015-02-01T11:09:00.99Z</time>
      </trkpt>
      <trkpt lat="43.62904" lon="6.97755">
        <ele>184</ele>
        <time>2015-02-01T11:09:03.99Z</time>
      </trkpt>
      <trkpt lat="43.62901" lon="6.9775">
        <ele>184</ele>
        <time>2015-02-01T11:09:06.99Z</time>
      </trkpt>
      <trkpt lat="43.62898" lon="6.97744">
        <ele>184</ele>
        <time>2015-02-01T11:09:09.99Z</time>
      </trkpt>
      <trkpt lat="43.62896" lon="6.97739">
        <ele>184</ele>
        <time>2015-02-01T11:09:11.99Z</time>
      </trkpt>
      <trkpt lat="43.62893" lon="6.97731">
        <ele>184</ele>
        <time>2015-02-01T11:09:14.99Z</time>
      </trkpt>
      <trkpt lat="43.62891" lon="6.97726">
        <ele>184</ele>
        <time>2015-02-01T11:09:16.99Z</time>
      </trkpt>
      <trkpt lat="43.62892" lon="6.97717">
        <ele>184</ele>
        <time>2015-02-01T11:09:19.96Z</time>
      </trkpt>
      <trkpt lat="43.62895" lon="6.97712">
        <ele>184</ele>
        <time>2015-02-01T11:09:21.99Z</time>
      </trkpt>
      <trkpt lat="43.62897" lon="6.97705">
        <ele>184</ele>
        <time>2015-02-01T11:09:24.99Z</time>
      </trkpt>
      <trkpt lat="43.629" lon="6.977">
        <ele>184</ele>
        <time>2015-02-01T11:09:27.99Z</time>
      </trkpt>
      <trkpt lat="43.62901" lon="6.9769">
        <ele>184</ele>
        <time>2015-02-01T11:09:31.99Z</time>
      </trkpt>
      <trkpt lat="43.62903" lon="6.97683">
        <ele>184</ele>
        <time>2015-02-01T11:09:34.99Z</time>
      </trkpt>
      <trkpt lat="43.62903" lon="6.97674">
        <ele>184</ele>
        <time>2015-02-01T11:09:38.99Z</time>
      </trkpt>
      <trkpt lat="43.62902" lon="6.97666">
        <ele>184</ele>
        <time>2015-02-01T11:09:41.99Z</time>
      </trkpt>
      <trkpt lat="43.62902" lon="6.9766">
        <ele>184</ele>
        <time>2015-02-01T11:09:44.99Z</time>
      </trkpt>
      <trkpt lat="43.62903" lon="6.97652">
        <ele>184</ele>
        <time>2015-02-01T11:09:47.99Z</time>
      </trkpt>
      <trkpt lat="43.62905" lon="6.97647">
        <ele>184</ele>
        <time>2015-02-01T11:09:49.99Z</time>
      </trkpt>
      <trkpt lat="43.62907" lon="6.97642">
        <ele>184</ele>
        <time>2015-02-01T11:09:51.99Z</time>
      </trkpt>
      <trkpt lat="43.6291" lon="6.97637">
        <ele>184</ele>
        <time>2015-02-01T11:09:53.99Z</time>
      </trkpt>
      <trkpt lat="43.62914" lon="6.97632">
        <ele>184</ele>
        <time>2015-02-01T11:09:56.99Z</time>
      </trkpt>
      <trkpt lat="43.62919" lon="6.97629">
        <ele>184</ele>
        <time>2015-02-01T11:09:59.99Z</time>
      </trkpt>
      <trkpt lat="43.62924" lon="6.97628">
        <ele>184</ele>
        <time>2015-02-01T11:10:01.99Z</time>
      </trkpt>
      <trkpt lat="43.62929" lon="6.9763">
        <ele>184</ele>
        <time>2015-02-01T11:10:03.99Z</time>
      </trkpt>
      <trkpt lat="43.62933" lon="6.97633">
        <ele>184</ele>
        <time>2015-02-01T11:10:05.99Z</time>
      </trkpt>
      <trkpt lat="43.62939" lon="6.97636">
        <ele>184</ele>
        <time>2015-02-01T11:10:07.99Z</time>
      </trkpt>
      <trkpt lat="43.62944" lon="6.9764">
        <ele>184</ele>
        <time>2015-02-01T11:10:09.99Z</time>
      </trkpt>
      <trkpt lat="43.62949" lon="6.97645">
        <ele>184</ele>
        <time>2015-02-01T11:10:11.99Z</time>
      </trkpt>
      <trkpt lat="43.62955" lon="6.97649">
        <ele>184</ele>
        <time>2015-02-01T11:10:13.99Z</time>
      </trkpt>
      <trkpt lat="43.6296" lon="6.97653">
        <ele>184</ele>
        <time>2015-02-01T11:10:15.99Z</time>
      </trkpt>
      <trkpt lat="43.62965" lon="6.97657">
        <ele>184</ele>
        <time>2015-02-01T11:10:18Z</time>
      </trkpt>
      <trkpt lat="43.62971" lon="6.97662">
        <ele>184</ele>
        <time>2015-02-01T11:10:19.99Z</time>
      </trkpt>
      <trkpt lat="43.62977" lon="6.97667">
        <ele>184</ele>
        <time>2015-02-01T11:10:21.99Z</time>
      </trkpt>
      <trkpt lat="43.62983" lon="6.97672">
        <ele>184</ele>
        <time>2015-02-01T11:10:23.99Z</time>
      </trkpt>
      <trkpt lat="43.62989" lon="6.97677">
        <ele>184</ele>
        <time>2015-02-01T11:10:25.98Z</time>
      </trkpt>
      <trkpt lat="43.62995" lon="6.97681">
        <ele>184</ele>
        <time>2015-02-01T11:10:27.99Z</time>
      </trkpt>
      <trkpt lat="43.63001" lon="6.97683">
        <ele>184</ele>
        <time>2015-02-01T11:10:29.99Z</time>
      </trkpt>
      <trkpt lat="43.63011" lon="6.97676">
        <ele>184</ele>
        <time>2015-02-01T11:10:32.99Z</time>
      </trkpt>
      <trkpt lat="43.63016" lon="6.97663">
        <ele>184</ele>
        <time>2015-02-01T11:10:36Z</time>
      </trkpt>
      <trkpt lat="43.63018" lon="6.97653">
        <ele>184</ele>
        <time>2015-02-01T11:10:37.99Z</time>
      </trkpt>
      <trkpt lat="43.6302" lon="6.97643">
        <ele>184</ele>
        <time>2015-02-01T11:10:39.99Z</time>
      </trkpt>
      <trkpt lat="43.63022" lon="6.97635">
        <ele>184</ele>
        <time>2015-02-01T11:10:41.99Z</time>
      </trkpt>
      <trkpt lat="43.63027" lon="6.97627">
        <ele>184</ele>
        <time>2015-02-01T11:10:43.99Z</time>
      </trkpt>
      <trkpt lat="43.63034" lon="6.97623">
        <ele>184</ele>
        <time>2015-02-01T11:10:46.01Z</time>
      </trkpt>
      <trkpt lat="43.6304" lon="6.97621">
        <ele>184</ele>
        <time>2015-02-01T11:10:47.99Z</time>
      </trkpt>
      <trkpt lat="43.63047" lon="6.97622">
        <ele>183.18</ele>
        <time>2015-02-01T11:10:49.99Z</time>
      </trkpt>
      <trkpt lat="43.63053" lon="6.97625">
        <ele>183</ele>
        <time>2015-02-01T11:10:51.99Z</time>
      </trkpt>
      <trkpt lat="43.6306" lon="6.97628">
        <ele>183</ele>
        <time>2015-02-01T11:10:54Z</time>
      </trkpt>
      <trkpt lat="43.63067" lon="6.97628">
        <ele>183</ele>
        <time>2015-02-01T11:10:55.99Z</time>
      </trkpt>
      <trkpt lat="43.63073" lon="6.97624">
        <ele>183</ele>
        <time>2015-02-01T11:10:57.99Z</time>
      </trkpt>
      <trkpt lat="43.63079" lon="6.97619">
        <ele>183</ele>
        <time>2015-02-01T11:10:59.99Z</time>
      </trkpt>
      <trkpt lat="43.63085" lon="6.97613">
        <ele>183</ele>
        <time>2015-02-01T11:11:01.99Z</time>
      </trkpt>
      <trkpt lat="43.6309" lon="6.97607">
        <ele>183</ele>
        <time>2015-02-01T11:11:03.99Z</time>
      </trkpt>
      <trkpt lat="43.63094" lon="6.97597">
        <ele>183</ele>
        <time>2015-02-01T11:11:06.99Z</time>
      </trkpt>
      <trkpt lat="43.63094" lon="6.97588">
        <ele>183</ele>
        <time>2015-02-01T11:11:09.99Z</time>
      </trkpt>
      <trkpt lat="43.63094" lon="6.97581">
        <ele>184</ele>
        <time>2015-02-01T11:11:12Z</time>
      </trkpt>
      <trkpt lat="43.63095" lon="6.97569">
        <ele>184</ele>
        <time>2015-02-01T11:11:14.99Z</time>
      </trkpt>
      <trkpt lat="43.63096" lon="6.97557">
        <ele>184</ele>
        <time>2015-02-01T11:11:17.99Z</time>
      </trkpt>
      <trkpt lat="43.63099" lon="6.9755">
        <ele>184</ele>
        <time>2015-02-01T11:11:19.99Z</time>
      </trkpt>
      <trkpt lat="43.63104" lon="6.97542">
        <ele>184</ele>
        <time>2015-02-01T11:11:21.99Z</time>
      </trkpt>
      <trkpt lat="43.63111" lon="6.97533">
        <ele>184</ele>
        <time>2015-02-01T11:11:24.99Z</time>
      </trkpt>
      <trkpt lat="43.63115" lon="6.97527">
        <ele>184</ele>
        <time>2015-02-01T11:11:26.99Z</time>
      </trkpt>
      <trkpt lat="43.6312" lon="6.97517">
        <ele>184</ele>
        <time>2015-02-01T11:11:29.99Z</time>
      </trkpt>
      <trkpt lat="43.63123" lon="6.9751">
        <ele>183</ele>
        <time>2015-02-01T11:11:31.99Z</time>
      </trkpt>
      <trkpt lat="43.63126" lon="6.97502">
        <ele>183</ele>
        <time>2015-02-01T11:11:33.99Z</time>
      </trkpt>
      <trkpt lat="43.63129" lon="6.97493">
        <ele>183</ele>
        <time>2015-02-01T11:11:35.99Z</time>
      </trkpt>
      <trkpt lat="43.63133" lon="6.97485">
        <ele>183</ele>
        <time>2015-02-01T11:11:37.99Z</time>
      </trkpt>
      <trkpt lat="43.63136" lon="6.97477">
        <ele>183</ele>
        <time>2015-02-01T11:11:39.99Z</time>
      </trkpt>
      <trkpt lat="43.63141" lon="6.97471">
        <ele>183</ele>
        <time>2015-02-01T11:11:41.99Z</time>
      </trkpt>
      <trkpt lat="43.63146" lon="6.97466">
        <ele>183</ele>
        <time>2015-02-01T11:11:43.99Z</time>
      </trkpt>
      <trkpt lat="43.63152" lon="6.97461">
        <ele>183</ele>
        <time>2015-02-01T11:11:45.99Z</time>
      </trkpt>
      <trkpt lat="43.63159" lon="6.9746">
        <ele>183</ele>
        <time>2015-02-01T11:11:47.98Z</time>
      </trkpt>
      <trkpt lat="43.63167" lon="6.97462">
        <ele>183</ele>
        <time>2015-02-01T11:11:49.99Z</time>
      </trkpt>
      <trkpt lat="43.63174" lon="6.97465">
        <ele>183</ele>
        <time>2015-02-01T11:11:51.99Z</time>
      </trkpt>
      <trkpt lat="43.63181" lon="6.97468">
        <ele>183</ele>
        <time>2015-02-01T11:11:54Z</time>
      </trkpt>
      <trkpt lat="43.63188" lon="6.9747">
        <ele>183</ele>
        <time>2015-02-01T11:11:56.01Z</time>
      </trkpt>
      <trkpt lat="43.63194" lon="6.9747">
        <ele>183</ele>
        <time>2015-02-01T11:11:57.99Z</time>
      </trkpt>
      <trkpt lat="43.632" lon="6.97464">
        <ele>183.82</ele>
        <time>2015-02-01T11:12:00.99Z</time>
      </trkpt>
      <trkpt lat="43.63209" lon="6.97463">
        <ele>184</ele>
        <time>2015-02-01T11:12:06.99Z</time>
      </trkpt>
      <trkpt lat="43.63213" lon="6.97458">
        <ele>184</ele>
        <time>2015-02-01T11:12:09.99Z</time>
      </trkpt>
      <trkpt lat="43.63216" lon="6.97455">
        <ele>184</ele>
        <time>2015-02-01T11:12:19.99Z</time>
      </trkpt>
      <trkpt lat="43.6322" lon="6.97451">
        <ele>184</ele>
        <time>2015-02-01T11:12:48.99Z</time>
      </trkpt>
      <trkpt lat="43.63225" lon="6.97446">
        <ele>184</ele>
        <time>2015-02-01T11:12:50.99Z</time>
      </trkpt>
      <trkpt lat="43.63229" lon="6.9744">
        <ele>184</ele>
        <time>2015-02-01T11:12:52.99Z</time>
      </trkpt>
      <trkpt lat="43.63234" lon="6.97435">
        <ele>184</ele>
        <time>2015-02-01T11:12:54.99Z</time>
      </trkpt>
      <trkpt lat="43.63239" lon="6.9743">
        <ele>184</ele>
        <time>2015-02-01T11:12:56.99Z</time>
      </trkpt>
      <trkpt lat="43.63244" lon="6.97426">
        <ele>184</ele>
        <time>2015-02-01T11:12:58.98Z</time>
      </trkpt>
      <trkpt lat="43.6325" lon="6.97423">
        <ele>183.18</ele>
        <time>2015-02-01T11:13:00.99Z</time>
      </trkpt>
      <trkpt lat="43.63256" lon="6.9742">
        <ele>183</ele>
        <time>2015-02-01T11:13:02.99Z</time>
      </trkpt>
      <trkpt lat="43.63263" lon="6.97418">
        <ele>183</ele>
        <time>2015-02-01T11:13:04.99Z</time>
      </trkpt>
      <trkpt lat="43.63269" lon="6.97415">
        <ele>183</ele>
        <time>2015-02-01T11:13:06.99Z</time>
      </trkpt>
      <trkpt lat="43.63276" lon="6.97412">
        <ele>183</ele>
        <time>2015-02-01T11:13:08.99Z</time>
      </trkpt>
      <trkpt lat="43.63282" lon="6.9741">
        <ele>183</ele>
        <time>2015-02-01T11:13:10.99Z</time>
      </trkpt>
      <trkpt lat="43.6329" lon="6.97408">
        <ele>183</ele>
        <time>2015-02-01T11:13:12.95Z</time>
      </trkpt>
      <trkpt lat="43.63297" lon="6.97407">
        <ele>183</ele>
        <time>2015-02-01T11:13:14.99Z</time>
      </trkpt>
      <trkpt lat="43.63304" lon="6.97407">
        <ele>183</ele>
        <time>2015-02-01T11:13:16.99Z</time>
      </trkpt>
      <trkpt lat="43.63314" lon="6.97409">
        <ele>183</ele>
        <time>2015-02-01T11:13:19.99Z</time>
      </trkpt>
      <trkpt lat="43.63322" lon="6.97412">
        <ele>183</ele>
        <time>2015-02-01T11:13:21.99Z</time>
      </trkpt>
      <trkpt lat="43.63329" lon="6.97416">
        <ele>183</ele>
        <time>2015-02-01T11:13:24.99Z</time>
      </trkpt>
      <trkpt lat="43.63336" lon="6.97424">
        <ele>183</ele>
        <time>2015-02-01T11:13:27.99Z</time>
      </trkpt>
      <trkpt lat="43.6334" lon="6.9743">
        <ele>183</ele>
        <time>2015-02-01T11:13:29.98Z</time>
      </trkpt>
      <trkpt lat="43.63345" lon="6.97435">
        <ele>183</ele>
        <time>2015-02-01T11:13:32.99Z</time>
      </trkpt>
      <trkpt lat="43.63352" lon="6.97436">
        <ele>183</ele>
        <time>2015-02-01T11:13:36.99Z</time>
      </trkpt>
      <trkpt lat="43.63358" lon="6.97436">
        <ele>183</ele>
        <time>2015-02-01T11:13:39.99Z</time>
      </trkpt>
      <trkpt lat="43.63365" lon="6.97437">
        <ele>183</ele>
        <time>2015-02-01T11:13:42.99Z</time>
      </trkpt>
      <trkpt lat="43.63371" lon="6.9744">
        <ele>183</ele>
        <time>2015-02-01T11:13:45.99Z</time>
      </trkpt>
      <trkpt lat="43.63378" lon="6.97443">
        <ele>183</ele>
        <time>2015-02-01T11:13:54.99Z</time>
      </trkpt>
      <trkpt lat="43.63387" lon="6.97448">
        <ele>183</ele>
        <time>2015-02-01T11:13:58.99Z</time>
      </trkpt>
      <trkpt lat="43.63395" lon="6.97451">
        <ele>183</ele>
        <time>2015-02-01T11:14:01.99Z</time>
      </trkpt>
      <trkpt lat="43.63404" lon="6.97449">
        <ele>183</ele>
        <time>2015-02-01T11:14:04.99Z</time>
      </trkpt>
      <trkpt lat="43.63408" lon="6.97436">
        <ele>183</ele>
        <time>2015-02-01T11:14:09.99Z</time>
      </trkpt>
      <trkpt lat="43.63407" lon="6.97424">
        <ele>183</ele>
        <time>2015-02-01T11:14:13.99Z</time>
      </trkpt>
      <trkpt lat="43.63407" lon="6.97412">
        <ele>183</ele>
        <time>2015-02-01T11:14:18.99Z</time>
      </trkpt>
      <trkpt lat="43.63408" lon="6.97399">
        <ele>183</ele>
        <time>2015-02-01T11:14:25.99Z</time>
      </trkpt>
      <trkpt lat="43.63413" lon="6.9739">
        <ele>183</ele>
        <time>2015-02-01T11:14:31.99Z</time>
      </trkpt>
      <trkpt lat="43.63419" lon="6.97378">
        <ele>183</ele>
        <time>2015-02-01T11:14:36.99Z</time>
      </trkpt>
      <trkpt lat="43.63425" lon="6.97369">
        <ele>183</ele>
        <time>2015-02-01T11:14:40.98Z</time>
      </trkpt>
      <trkpt lat="43.63431" lon="6.97361">
        <ele>183</ele>
        <time>2015-02-01T11:14:44.99Z</time>
      </trkpt>
      <trkpt lat="43.63431" lon="6.97351">
        <ele>183.82</ele>
        <time>2015-02-01T11:14:48.99Z</time>
      </trkpt>
      <trkpt lat="43.63428" lon="6.97342">
        <ele>184</ele>
        <time>2015-02-01T11:14:52.99Z</time>
      </trkpt>
      <trkpt lat="43.63421" lon="6.97336">
        <ele>184</ele>
        <time>2015-02-01T11:14:56.99Z</time>
      </trkpt>
      <trkpt lat="43.63412" lon="6.97338">
        <ele>184</ele>
        <time>2015-02-01T11:15:00.99Z</time>
      </trkpt>
      <trkpt lat="43.63404" lon="6.97343">
        <ele>184</ele>
        <time>2015-02-01T11:15:09.99Z</time>
      </trkpt>
      <trkpt lat="43.63396" lon="6.97342">
        <ele>185</ele>
        <time>2015-02-01T11:15:17.99Z</time>
      </trkpt>
      <trkpt lat="43.63389" lon="6.97337">
        <ele>185</ele>
        <time>2015-02-01T11:15:25.99Z</time>
      </trkpt>
      <trkpt lat="43.63383" lon="6.97331">
        <ele>184</ele>
        <time>2015-02-01T11:15:34.95Z</time>
      </trkpt>
      <trkpt lat="43.63379" lon="6.97319">
        <ele>184</ele>
        <time>2015-02-01T11:15:45.99Z</time>
      </trkpt>
      <trkpt lat="43.63377" lon="6.9731">
        <ele>184</ele>
        <time>2015-02-01T11:15:48.99Z</time>
      </trkpt>
      <trkpt lat="43.63373" lon="6.973">
        <ele>185</ele>
        <time>2015-02-01T11:15:51.99Z</time>
      </trkpt>
      <trkpt lat="43.63368" lon="6.97289">
        <ele>185</ele>
        <time>2015-02-01T11:15:55.99Z</time>
      </trkpt>
      <trkpt lat="43.63366" lon="6.97275">
        <ele>185</ele>
        <time>2015-02-01T11:16:00.99Z</time>
      </trkpt>
      <trkpt lat="43.63364" lon="6.9726">
        <ele>185</ele>
        <time>2015-02-01T11:16:05.99Z</time>
      </trkpt>
      <trkpt lat="43.63364" lon="6.97244">
        <ele>185</ele>
        <time>2015-02-01T11:16:12.99Z</time>
      </trkpt>
      <trkpt lat="43.63367" lon="6.9723">
        <ele>185</ele>
        <time>2015-02-01T11:16:18Z</time>
      </trkpt>
      <trkpt lat="43.63373" lon="6.97219">
        <ele>185</ele>
        <time>2015-02-01T11:16:21.99Z</time>
      </trkpt>
      <trkpt lat="43.63381" lon="6.97208">
        <ele>185</ele>
        <time>2015-02-01T11:16:27.99Z</time>
      </trkpt>
      <trkpt lat="43.6339" lon="6.97206">
        <ele>185</ele>
        <time>2015-02-01T11:16:31.99Z</time>
      </trkpt>
      <trkpt lat="43.63398" lon="6.97207">
        <ele>185</ele>
        <time>2015-02-01T11:16:36Z</time>
      </trkpt>
      <trkpt lat="43.63407" lon="6.97211">
        <ele>185</ele>
        <time>2015-02-01T11:16:38.99Z</time>
      </trkpt>
      <trkpt lat="43.63415" lon="6.97216">
        <ele>185</ele>
        <time>2015-02-01T11:16:41.99Z</time>
      </trkpt>
      <trkpt lat="43.63423" lon="6.97219">
        <ele>185</ele>
        <time>2015-02-01T11:16:44.99Z</time>
      </trkpt>
      <trkpt lat="43.63432" lon="6.97223">
        <ele>185</ele>
        <time>2015-02-01T11:16:46.99Z</time>
      </trkpt>
      <trkpt lat="43.6344" lon="6.97226">
        <ele>185</ele>
        <time>2015-02-01T11:16:48.99Z</time>
      </trkpt>
      <trkpt lat="43.63449" lon="6.97227">
        <ele>185</ele>
        <time>2015-02-01T11:16:50.99Z</time>
      </trkpt>
      <trkpt lat="43.63457" lon="6.97227">
        <ele>185</ele>
        <time>2015-02-01T11:16:52.99Z</time>
      </trkpt>
      <trkpt lat="43.63464" lon="6.97226">
        <ele>185</ele>
        <time>2015-02-01T11:16:54.99Z</time>
      </trkpt>
      <trkpt lat="43.63472" lon="6.97223">
        <ele>185</ele>
        <time>2015-02-01T11:16:56.99Z</time>
      </trkpt>
      <trkpt lat="43.63479" lon="6.9722">
        <ele>185</ele>
        <time>2015-02-01T11:16:58.99Z</time>
      </trkpt>
      <trkpt lat="43.63484" lon="6.97217">
        <ele>185</ele>
        <time>2015-02-01T11:17:00.99Z</time>
      </trkpt>
      <trkpt lat="43.6349" lon="6.97214">
        <ele>185</ele>
        <time>2015-02-01T11:17:04.99Z</time>
      </trkpt>
      <trkpt lat="43.63494" lon="6.9721">
        <ele>185</ele>
        <time>2015-02-01T11:17:06.99Z</time>
      </trkpt>
      <trkpt lat="43.635" lon="6.97207">
        <ele>185</ele>
        <time>2015-02-01T11:17:08.99Z</time>
      </trkpt>
      <trkpt lat="43.63508" lon="6.97206">
        <ele>185</ele>
        <time>2015-02-01T11:17:10.99Z</time>
      </trkpt>
      <trkpt lat="43.63515" lon="6.97203">
        <ele>185</ele>
        <time>2015-02-01T11:17:12.99Z</time>
      </trkpt>
      <trkpt lat="43.63519" lon="6.97202">
        <ele>185</ele>
        <time>2015-02-01T11:17:13.99Z</time>
      </trkpt>
      <trkpt lat="43.63528" lon="6.97199">
        <ele>185</ele>
        <time>2015-02-01T11:17:15.98Z</time>
      </trkpt>
      <trkpt lat="43.63538" lon="6.97197">
        <ele>185</ele>
        <time>2015-02-01T11:17:17.99Z</time>
      </trkpt>
      <trkpt lat="43.63542" lon="6.97197">
        <ele>185</ele>
        <time>2015-02-01T11:17:18.99Z</time>
      </trkpt>
      <trkpt lat="43.63547" lon="6.97197">
        <ele>185</ele>
        <time>2015-02-01T11:17:19.99Z</time>
      </trkpt>
      <trkpt lat="43.63551" lon="6.97197">
        <ele>184.18</ele>
        <time>2015-02-01T11:17:20.99Z</time>
      </trkpt>
      <trkpt lat="43.63556" lon="6.97197">
        <ele>184</ele>
        <time>2015-02-01T11:17:21.99Z</time>
      </trkpt>
      <trkpt lat="43.6356" lon="6.97198">
        <ele>184</ele>
        <time>2015-02-01T11:17:22.99Z</time>
      </trkpt>
      <trkpt lat="43.63564" lon="6.97197">
        <ele>184</ele>
        <time>2015-02-01T11:17:23.99Z</time>
      </trkpt>
      <trkpt lat="43.63569" lon="6.97197">
        <ele>184</ele>
        <time>2015-02-01T11:17:25Z</time>
      </trkpt>
      <trkpt lat="43.63577" lon="6.97196">
        <ele>184</ele>
        <time>2015-02-01T11:17:26.99Z</time>
      </trkpt>
      <trkpt lat="43.63586" lon="6.97195">
        <ele>184</ele>
        <time>2015-02-01T11:17:28.99Z</time>
      </trkpt>
      <trkpt lat="43.63593" lon="6.97192">
        <ele>184</ele>
        <time>2015-02-01T11:17:30.99Z</time>
      </trkpt>
      <trkpt lat="43.63599" lon="6.97185">
        <ele>184</ele>
        <time>2015-02-01T11:17:32.99Z</time>
      </trkpt>
      <trkpt lat="43.63602" lon="6.97178">
        <ele>184</ele>
        <time>2015-02-01T11:17:34.99Z</time>
      </trkpt>
      <trkpt lat="43.63604" lon="6.97169">
        <ele>184</ele>
        <time>2015-02-01T11:17:38Z</time>
      </trkpt>
      <trkpt lat="43.63608" lon="6.97154">
        <ele>184</ele>
        <time>2015-02-01T11:17:42.99Z</time>
      </trkpt>
      <trkpt lat="43.63617" lon="6.97146">
        <ele>184</ele>
        <time>2015-02-01T11:17:47.99Z</time>
      </trkpt>
      <trkpt lat="43.63625" lon="6.97151">
        <ele>184</ele>
        <time>2015-02-01T11:17:50.99Z</time>
      </trkpt>
      <trkpt lat="43.63631" lon="6.97162">
        <ele>184</ele>
        <time>2015-02-01T11:17:54Z</time>
      </trkpt>
      <trkpt lat="43.63637" lon="6.97168">
        <ele>184</ele>
        <time>2015-02-01T11:17:55.99Z</time>
      </trkpt>
      <trkpt lat="43.63644" lon="6.97173">
        <ele>184</ele>
        <time>2015-02-01T11:17:57.99Z</time>
      </trkpt>
      <trkpt lat="43.6365" lon="6.97179">
        <ele>184.82</ele>
        <time>2015-02-01T11:18:00.99Z</time>
      </trkpt>
      <trkpt lat="43.63657" lon="6.9718">
        <ele>185</ele>
        <time>2015-02-01T11:18:02.99Z</time>
      </trkpt>
      <trkpt lat="43.63663" lon="6.97181">
        <ele>185</ele>
        <time>2015-02-01T11:18:04.99Z</time>
      </trkpt>
      <trkpt lat="43.6367" lon="6.9718">
        <ele>185</ele>
        <time>2015-02-01T11:18:06.99Z</time>
      </trkpt>
      <trkpt lat="43.63677" lon="6.97181">
        <ele>185</ele>
        <time>2015-02-01T11:18:09Z</time>
      </trkpt>
      <trkpt lat="43.63683" lon="6.97182">
        <ele>185</ele>
        <time>2015-02-01T11:18:10.99Z</time>
      </trkpt>
      <trkpt lat="43.6369" lon="6.97182">
        <ele>185</ele>
        <time>2015-02-01T11:18:12.99Z</time>
      </trkpt>
      <trkpt lat="43.63697" lon="6.97182">
        <ele>185</ele>
        <time>2015-02-01T11:18:14.99Z</time>
      </trkpt>
      <trkpt lat="43.63702" lon="6.9718">
        <ele>185</ele>
        <time>2015-02-01T11:18:16.99Z</time>
      </trkpt>
      <trkpt lat="43.63706" lon="6.97174">
        <ele>185</ele>
        <time>2015-02-01T11:18:19.99Z</time>
      </trkpt>
      <trkpt lat="43.63708" lon="6.97168">
        <ele>185</ele>
        <time>2015-02-01T11:18:22.99Z</time>
      </trkpt>
      <trkpt lat="43.63709" lon="6.9716">
        <ele>185</ele>
        <time>2015-02-01T11:18:26.99Z</time>
      </trkpt>
      <trkpt lat="43.63711" lon="6.97151">
        <ele>185</ele>
        <time>2015-02-01T11:18:30Z</time>
      </trkpt>
      <trkpt lat="43.63711" lon="6.97144">
        <ele>185</ele>
        <time>2015-02-01T11:18:31.99Z</time>
      </trkpt>
      <trkpt lat="43.63711" lon="6.97136">
        <ele>185</ele>
        <time>2015-02-01T11:18:33.99Z</time>
      </trkpt>
      <trkpt lat="43.63711" lon="6.97126">
        <ele>185</ele>
        <time>2015-02-01T11:18:36.99Z</time>
      </trkpt>
      <trkpt lat="43.6371" lon="6.97112">
        <ele>185</ele>
        <time>2015-02-01T11:18:40.99Z</time>
      </trkpt>
      <trkpt lat="43.63709" lon="6.97094">
        <ele>185</ele>
        <time>2015-02-01T11:18:43.99Z</time>
      </trkpt>
      <trkpt lat="43.63706" lon="6.9708">
        <ele>185</ele>
        <time>2015-02-01T11:18:45.99Z</time>
      </trkpt>
      <trkpt lat="43.63701" lon="6.97063">
        <ele>185</ele>
        <time>2015-02-01T11:18:48.99Z</time>
      </trkpt>
      <trkpt lat="43.637" lon="6.97049">
        <ele>185</ele>
        <time>2015-02-01T11:18:57.99Z</time>
      </trkpt>
      <trkpt lat="43.63698" lon="6.97035">
        <ele>185</ele>
        <time>2015-02-01T11:19:12.99Z</time>
      </trkpt>
      <trkpt lat="43.63697" lon="6.97021">
        <ele>185</ele>
        <time>2015-02-01T11:19:22.99Z</time>
      </trkpt>
      <trkpt lat="43.63694" lon="6.9701">
        <ele>185</ele>
        <time>2015-02-01T11:19:30.99Z</time>
      </trkpt>
      <trkpt lat="43.63694" lon="6.96998">
        <ele>185</ele>
        <time>2015-02-01T11:19:55.99Z</time>
      </trkpt>
      <trkpt lat="43.63695" lon="6.96986">
        <ele>185</ele>
        <time>2015-02-01T11:20:26.99Z</time>
      </trkpt>
      <trkpt lat="43.63699" lon="6.96978">
        <ele>185</ele>
        <time>2015-02-01T11:21:01.99Z</time>
      </trkpt>
      <trkpt lat="43.63708" lon="6.96969">
        <ele>185</ele>
        <time>2015-02-01T11:21:06.99Z</time>
      </trkpt>
      <trkpt lat="43.63715" lon="6.96968">
        <ele>185</ele>
        <time>2015-02-01T11:21:09.99Z</time>
      </trkpt>
      <trkpt lat="43.63723" lon="6.96965">
        <ele>185</ele>
        <time>2015-02-01T11:21:12.99Z</time>
      </trkpt>
      <trkpt lat="43.63732" lon="6.96963">
        <ele>185</ele>
        <time>2015-02-01T11:21:15.99Z</time>
      </trkpt>
      <trkpt lat="43.63741" lon="6.96961">
        <ele>185</ele>
        <time>2015-02-01T11:21:18.99Z</time>
      </trkpt>
      <trkpt lat="43.63749" lon="6.96962">
        <ele>185</ele>
        <time>2015-02-01T11:21:21.99Z</time>
      </trkpt>
      <trkpt lat="43.63759" lon="6.96966">
        <ele>185</ele>
        <time>2015-02-01T11:21:24.99Z</time>
      </trkpt>
      <trkpt lat="43.6377" lon="6.9697">
        <ele>185</ele>
        <time>2015-02-01T11:21:27.99Z</time>
      </trkpt>
      <trkpt lat="43.6378" lon="6.96975">
        <ele>185</ele>
        <time>2015-02-01T11:21:31Z</time>
      </trkpt>
      <trkpt lat="43.63788" lon="6.9698">
        <ele>185</ele>
        <time>2015-02-01T11:21:32.99Z</time>
      </trkpt>
      <trkpt lat="43.63796" lon="6.96985">
        <ele>185</ele>
        <time>2015-02-01T11:21:34.99Z</time>
      </trkpt>
      <trkpt lat="43.63802" lon="6.96991">
        <ele>185</ele>
        <time>2015-02-01T11:21:36.99Z</time>
      </trkpt>
      <trkpt lat="43.63807" lon="6.96998">
        <ele>185</ele>
        <time>2015-02-01T11:21:38.99Z</time>
      </trkpt>
      <trkpt lat="43.63812" lon="6.97004">
        <ele>185</ele>
        <time>2015-02-01T11:21:40.99Z</time>
      </trkpt>
      <trkpt lat="43.63819" lon="6.9701">
        <ele>185</ele>
        <time>2015-02-01T11:21:43.99Z</time>
      </trkpt>
      <trkpt lat="43.63827" lon="6.97012">
        <ele>185</ele>
        <time>2015-02-01T11:21:47.99Z</time>
      </trkpt>
      <trkpt lat="43.63835" lon="6.97009">
        <ele>185</ele>
        <time>2015-02-01T11:21:51.99Z</time>
      </trkpt>
      <trkpt lat="43.6384" lon="6.97003">
        <ele>185</ele>
        <time>2015-02-01T11:21:54.99Z</time>
      </trkpt>
      <trkpt lat="43.63844" lon="6.96996">
        <ele>185</ele>
        <time>2015-02-01T11:21:57.98Z</time>
      </trkpt>
      <trkpt lat="43.63847" lon="6.96987">
        <ele>185</ele>
        <time>2015-02-01T11:22:00.99Z</time>
      </trkpt>
      <trkpt lat="43.63851" lon="6.96977">
        <ele>185</ele>
        <time>2015-02-01T11:22:03.99Z</time>
      </trkpt>
      <trkpt lat="43.63853" lon="6.96971">
        <ele>185</ele>
        <time>2015-02-01T11:22:05.99Z</time>
      </trkpt>
      <trkpt lat="43.63856" lon="6.96965">
        <ele>185</ele>
        <time>2015-02-01T11:22:07.99Z</time>
      </trkpt>
      <trkpt lat="43.63858" lon="6.96958">
        <ele>185</ele>
        <time>2015-02-01T11:22:10.99Z</time>
      </trkpt>
      <trkpt lat="43.63861" lon="6.96952">
        <ele>185</ele>
        <time>2015-02-01T11:22:49.99Z</time>
      </trkpt>
      <trkpt lat="43.63866" lon="6.96946">
        <ele>185</ele>
        <time>2015-02-01T11:22:52.95Z</time>
      </trkpt>
      <trkpt lat="43.63874" lon="6.96941">
        <ele>185</ele>
        <time>2015-02-01T11:22:56.99Z</time>
      </trkpt>
      <trkpt lat="43.63881" lon="6.96934">
        <ele>185</ele>
        <time>2015-02-01T11:22:59.99Z</time>
      </trkpt>
      <trkpt lat="43.63887" lon="6.96925">
        <ele>185</ele>
        <time>2015-02-01T11:23:02.99Z</time>
      </trkpt>
      <trkpt lat="43.63891" lon="6.96919">
        <ele>185</ele>
        <time>2015-02-01T11:23:04.99Z</time>
      </trkpt>
      <trkpt lat="43.63895" lon="6.96912">
        <ele>185</ele>
        <time>2015-02-01T11:23:06.98Z</time>
      </trkpt>
      <trkpt lat="43.63899" lon="6.96906">
        <ele>185</ele>
        <time>2015-02-01T11:23:08.99Z</time>
      </trkpt>
      <trkpt lat="43.63902" lon="6.96899">
        <ele>185</ele>
        <time>2015-02-01T11:23:10.99Z</time>
      </trkpt>
      <trkpt lat="43.63905" lon="6.96893">
        <ele>185</ele>
        <time>2015-02-01T11:23:12.99Z</time>
      </trkpt>
      <trkpt lat="43.63908" lon="6.96886">
        <ele>185</ele>
        <time>2015-02-01T11:23:14.99Z</time>
      </trkpt>
      <trkpt lat="43.63913" lon="6.96878">
        <ele>185</ele>
        <time>2015-02-01T11:23:17.99Z</time>
      </trkpt>
      <trkpt lat="43.63918" lon="6.96865">
        <ele>185</ele>
        <time>2015-02-01T11:23:20.99Z</time>
      </trkpt>
      <trkpt lat="43.63923" lon="6.96851">
        <ele>185</ele>
        <time>2015-02-01T11:23:24.96Z</time>
      </trkpt>
      <trkpt lat="43.63926" lon="6.96839">
        <ele>185</ele>
        <time>2015-02-01T11:23:28.99Z</time>
      </trkpt>
      <trkpt lat="43.63929" lon="6.96825">
        <ele>185</ele>
        <time>2015-02-01T11:23:32.99Z</time>
      </trkpt>
      <trkpt lat="43.63933" lon="6.96815">
        <ele>185</ele>
        <time>2015-02-01T11:23:35.99Z</time>
      </trkpt>
      <trkpt lat="43.63936" lon="6.96808">
        <ele>185</ele>
        <time>2015-02-01T11:23:52.99Z</time>
      </trkpt>
      <trkpt lat="43.63942" lon="6.96802">
        <ele>185</ele>
        <time>2015-02-01T11:23:55.99Z</time>
      </trkpt>
      <trkpt lat="43.63947" lon="6.96799">
        <ele>185</ele>
        <time>2015-02-01T11:23:57.99Z</time>
      </trkpt>
      <trkpt lat="43.63953" lon="6.96796">
        <ele>185</ele>
        <time>2015-02-01T11:23:59.99Z</time>
      </trkpt>
      <trkpt lat="43.6396" lon="6.96794">
        <ele>185</ele>
        <time>2015-02-01T11:24:01.99Z</time>
      </trkpt>
      <trkpt lat="43.63966" lon="6.96792">
        <ele>185</ele>
        <time>2015-02-01T11:24:03.99Z</time>
      </trkpt>
      <trkpt lat="43.63973" lon="6.9679">
        <ele>185</ele>
        <time>2015-02-01T11:24:05.99Z</time>
      </trkpt>
      <trkpt lat="43.63979" lon="6.96787">
        <ele>185</ele>
        <time>2015-02-01T11:24:07.99Z</time>
      </trkpt>
      <trkpt lat="43.63987" lon="6.96781">
        <ele>185</ele>
        <time>2015-02-01T11:24:10.99Z</time>
      </trkpt>
      <trkpt lat="43.63993" lon="6.96773">
        <ele>185</ele>
        <time>2015-02-01T11:24:14Z</time>
      </trkpt>
      <trkpt lat="43.63997" lon="6.96766">
        <ele>185</ele>
        <time>2015-02-01T11:24:15.99Z</time>
      </trkpt>
      <trkpt lat="43.64" lon="6.96759">
        <ele>185</ele>
        <time>2015-02-01T11:24:17.99Z</time>
      </trkpt>
      <trkpt lat="43.64001" lon="6.96751">
        <ele>185</ele>
        <time>2015-02-01T11:24:19.99Z</time>
      </trkpt>
      <trkpt lat="43.64002" lon="6.96739">
        <ele>185</ele>
        <time>2015-02-01T11:24:22.99Z</time>
      </trkpt>
      <trkpt lat="43.64004" lon="6.96728">
        <ele>185</ele>
        <time>2015-02-01T11:24:25.99Z</time>
      </trkpt>
      <trkpt lat="43.64008" lon="6.9672">
        <ele>185</ele>
        <time>2015-02-01T11:24:28.99Z</time>
      </trkpt>
      <trkpt lat="43.64012" lon="6.96717">
        <ele>185</ele>
        <time>2015-02-01T11:24:30.99Z</time>
      </trkpt>
      <trkpt lat="43.64015" lon="6.96713">
        <ele>185</ele>
        <time>2015-02-01T11:24:32.95Z</time>
      </trkpt>
      <trkpt lat="43.64021" lon="6.96712">
        <ele>185</ele>
        <time>2015-02-01T11:24:34.99Z</time>
      </trkpt>
      <trkpt lat="43.64027" lon="6.96712">
        <ele>185</ele>
        <time>2015-02-01T11:24:36.99Z</time>
      </trkpt>
      <trkpt lat="43.64031" lon="6.96714">
        <ele>185</ele>
        <time>2015-02-01T11:24:38.99Z</time>
      </trkpt>
      <trkpt lat="43.64035" lon="6.96717">
        <ele>185</ele>
        <time>2015-02-01T11:24:40.99Z</time>
      </trkpt>
      <trkpt lat="43.64039" lon="6.96724">
        <ele>185</ele>
        <time>2015-02-01T11:24:43.99Z</time>
      </trkpt>
      <trkpt lat="43.64042" lon="6.9673">
        <ele>185</ele>
        <time>2015-02-01T11:24:46.99Z</time>
      </trkpt>
      <trkpt lat="43.64045" lon="6.96734">
        <ele>185</ele>
        <time>2015-02-01T11:24:48.99Z</time>
      </trkpt>
      <trkpt lat="43.6405" lon="6.96739">
        <ele>185</ele>
        <time>2015-02-01T11:24:50.99Z</time>
      </trkpt>
      <trkpt lat="43.64056" lon="6.96743">
        <ele>185</ele>
        <time>2015-02-01T11:24:52.99Z</time>
      </trkpt>
      <trkpt lat="43.64062" lon="6.96747">
        <ele>185</ele>
        <time>2015-02-01T11:24:54.99Z</time>
      </trkpt>
      <trkpt lat="43.64068" lon="6.9675">
        <ele>185</ele>
        <time>2015-02-01T11:24:56.99Z</time>
      </trkpt>
      <trkpt lat="43.64074" lon="6.96753">
        <ele>185</ele>
        <time>2015-02-01T11:24:59.99Z</time>
      </trkpt>
      <trkpt lat="43.6408" lon="6.96754">
        <ele>185</ele>
        <time>2015-02-01T11:25:02.99Z</time>
      </trkpt>
      <trkpt lat="43.64087" lon="6.96742">
        <ele>185</ele>
        <time>2015-02-01T11:25:08.99Z</time>
      </trkpt>
      <trkpt lat="43.6409" lon="6.96735">
        <ele>186</ele>
        <time>2015-02-01T11:25:11.99Z</time>
      </trkpt>
      <trkpt lat="43.64092" lon="6.96725">
        <ele>186</ele>
        <time>2015-02-01T11:25:15.99Z</time>
      </trkpt>
      <trkpt lat="43.64094" lon="6.96712">
        <ele>186</ele>
        <time>2015-02-01T11:25:21.99Z</time>
      </trkpt>
      <trkpt lat="43.64088" lon="6.96704">
        <ele>186</ele>
        <time>2015-02-01T11:25:35.99Z</time>
      </trkpt>
      <trkpt lat="43.64078" lon="6.96695">
        <ele>186</ele>
        <time>2015-02-01T11:25:41.98Z</time>
      </trkpt>
      <trkpt lat="43.64071" lon="6.96686">
        <ele>186</ele>
        <time>2015-02-01T11:25:45.99Z</time>
      </trkpt>
      <trkpt lat="43.64067" lon="6.96679">
        <ele>186</ele>
        <time>2015-02-01T11:25:48.99Z</time>
      </trkpt>
      <trkpt lat="43.64064" lon="6.96673">
        <ele>186</ele>
        <time>2015-02-01T11:25:50.99Z</time>
      </trkpt>
      <trkpt lat="43.64062" lon="6.96667">
        <ele>186</ele>
        <time>2015-02-01T11:25:53.99Z</time>
      </trkpt>
      <trkpt lat="43.64057" lon="6.96656">
        <ele>186</ele>
        <time>2015-02-01T11:25:59.99Z</time>
      </trkpt>
      <trkpt lat="43.64052" lon="6.96645">
        <ele>185</ele>
        <time>2015-02-01T11:26:06Z</time>
      </trkpt>
      <trkpt lat="43.64049" lon="6.96638">
        <ele>185</ele>
        <time>2015-02-01T11:26:08.99Z</time>
      </trkpt>
      <trkpt lat="43.64045" lon="6.96624">
        <ele>187</ele>
        <time>2015-02-01T11:26:14.99Z</time>
      </trkpt>
      <trkpt lat="43.64047" lon="6.96614">
        <ele>187</ele>
        <time>2015-02-01T11:26:20.99Z</time>
      </trkpt>
      <trkpt lat="43.64049" lon="6.96608">
        <ele>186</ele>
        <time>2015-02-01T11:26:39.99Z</time>
      </trkpt>
      <trkpt lat="43.64052" lon="6.96596">
        <ele>186</ele>
        <time>2015-02-01T11:26:49.99Z</time>
      </trkpt>
      <trkpt lat="43.64054" lon="6.96584">
        <ele>187</ele>
        <time>2015-02-01T11:26:52.99Z</time>
      </trkpt>
      <trkpt lat="43.64055" lon="6.96571">
        <ele>187</ele>
        <time>2015-02-01T11:26:55.99Z</time>
      </trkpt>
      <trkpt lat="43.64057" lon="6.96558">
        <ele>187</ele>
        <time>2015-02-01T11:26:58.99Z</time>
      </trkpt>
      <trkpt lat="43.64059" lon="6.9655">
        <ele>186.18</ele>
        <time>2015-02-01T11:27:00.99Z</time>
      </trkpt>
      <trkpt lat="43.6406" lon="6.96542">
        <ele>186</ele>
        <time>2015-02-01T11:27:02.99Z</time>
      </trkpt>
      <trkpt lat="43.64061" lon="6.96534">
        <ele>186</ele>
        <time>2015-02-01T11:27:04.99Z</time>
      </trkpt>
      <trkpt lat="43.64065" lon="6.96521">
        <ele>186</ele>
        <time>2015-02-01T11:27:07.99Z</time>
      </trkpt>
      <trkpt lat="43.64068" lon="6.96513">
        <ele>186</ele>
        <time>2015-02-01T11:27:09.99Z</time>
      </trkpt>
      <trkpt lat="43.64071" lon="6.96507">
        <ele>186</ele>
        <time>2015-02-01T11:27:11.99Z</time>
      </trkpt>
      <trkpt lat="43.64074" lon="6.965">
        <ele>186</ele>
        <time>2015-02-01T11:27:13.99Z</time>
      </trkpt>
      <trkpt lat="43.64079" lon="6.96493">
        <ele>186</ele>
        <time>2015-02-01T11:27:16.99Z</time>
      </trkpt>
      <trkpt lat="43.64083" lon="6.96487">
        <ele>187</ele>
        <time>2015-02-01T11:27:38.99Z</time>
      </trkpt>
      <trkpt lat="43.64088" lon="6.96481">
        <ele>187</ele>
        <time>2015-02-01T11:27:44.99Z</time>
      </trkpt>
      <trkpt lat="43.64092" lon="6.96475">
        <ele>188</ele>
        <time>2015-02-01T11:27:51.99Z</time>
      </trkpt>
      <trkpt lat="43.64094" lon="6.96467">
        <ele>188</ele>
        <time>2015-02-01T11:27:54.99Z</time>
      </trkpt>
      <trkpt lat="43.64098" lon="6.96462">
        <ele>188</ele>
        <time>2015-02-01T11:27:57.01Z</time>
      </trkpt>
      <trkpt lat="43.64104" lon="6.96455">
        <ele>188</ele>
        <time>2015-02-01T11:27:59.99Z</time>
      </trkpt>
      <trkpt lat="43.64109" lon="6.96449">
        <ele>187</ele>
        <time>2015-02-01T11:28:02.99Z</time>
      </trkpt>
      <trkpt lat="43.64115" lon="6.96443">
        <ele>187</ele>
        <time>2015-02-01T11:28:05.99Z</time>
      </trkpt>
      <trkpt lat="43.64121" lon="6.96438">
        <ele>187</ele>
        <time>2015-02-01T11:28:08.99Z</time>
      </trkpt>
      <trkpt lat="43.64125" lon="6.96437">
        <ele>187</ele>
        <time>2015-02-01T11:28:10.99Z</time>
      </trkpt>
      <trkpt lat="43.64131" lon="6.96436">
        <ele>187</ele>
        <time>2015-02-01T11:28:12.99Z</time>
      </trkpt>
      <trkpt lat="43.64137" lon="6.96434">
        <ele>187</ele>
        <time>2015-02-01T11:28:14.99Z</time>
      </trkpt>
      <trkpt lat="43.64143" lon="6.96433">
        <ele>187</ele>
        <time>2015-02-01T11:28:16.99Z</time>
      </trkpt>
      <trkpt lat="43.64149" lon="6.96433">
        <ele>187</ele>
        <time>2015-02-01T11:28:18.98Z</time>
      </trkpt>
      <trkpt lat="43.64156" lon="6.96433">
        <ele>186.18</ele>
        <time>2015-02-01T11:28:20.99Z</time>
      </trkpt>
      <trkpt lat="43.64165" lon="6.96434">
        <ele>186</ele>
        <time>2015-02-01T11:28:23.99Z</time>
      </trkpt>
      <trkpt lat="43.64175" lon="6.96434">
        <ele>186</ele>
        <time>2015-02-01T11:28:26.99Z</time>
      </trkpt>
      <trkpt lat="43.64185" lon="6.96432">
        <ele>186</ele>
        <time>2015-02-01T11:28:36.98Z</time>
      </trkpt>
      <trkpt lat="43.64193" lon="6.96427">
        <ele>186</ele>
        <time>2015-02-01T11:29:49.99Z</time>
      </trkpt>
      <trkpt lat="43.64197" lon="6.96419">
        <ele>186</ele>
        <time>2015-02-01T11:29:54Z</time>
      </trkpt>
      <trkpt lat="43.64203" lon="6.96409">
        <ele>186</ele>
        <time>2015-02-01T11:29:57.99Z</time>
      </trkpt>
      <trkpt lat="43.64211" lon="6.96399">
        <ele>187</ele>
        <time>2015-02-01T11:30:01.99Z</time>
      </trkpt>
      <trkpt lat="43.64216" lon="6.96392">
        <ele>187</ele>
        <time>2015-02-01T11:30:04.99Z</time>
      </trkpt>
      <trkpt lat="43.6422" lon="6.96384">
        <ele>187</ele>
        <time>2015-02-01T11:30:07.99Z</time>
      </trkpt>
      <trkpt lat="43.64226" lon="6.96376">
        <ele>187</ele>
        <time>2015-02-01T11:30:10.99Z</time>
      </trkpt>
      <trkpt lat="43.64232" lon="6.96367">
        <ele>187</ele>
        <time>2015-02-01T11:30:13.99Z</time>
      </trkpt>
      <trkpt lat="43.6424" lon="6.96358">
        <ele>187</ele>
        <time>2015-02-01T11:30:16.99Z</time>
      </trkpt>
      <trkpt lat="43.64247" lon="6.96349">
        <ele>187</ele>
        <time>2015-02-01T11:30:19.99Z</time>
      </trkpt>
      <trkpt lat="43.64254" lon="6.96341">
        <ele>187</ele>
        <time>2015-02-01T11:30:22.99Z</time>
      </trkpt>
      <trkpt lat="43.64261" lon="6.96334">
        <ele>187</ele>
        <time>2015-02-01T11:30:25.99Z</time>
      </trkpt>
      <trkpt lat="43.64269" lon="6.96328">
        <ele>187</ele>
        <time>2015-02-01T11:30:28.99Z</time>
      </trkpt>
      <trkpt lat="43.64278" lon="6.96325">
        <ele>187</ele>
        <time>2015-02-01T11:30:31.99Z</time>
      </trkpt>
      <trkpt lat="43.64284" lon="6.96324">
        <ele>187</ele>
        <time>2015-02-01T11:30:33.99Z</time>
      </trkpt>
      <trkpt lat="43.6429" lon="6.96323">
        <ele>187</ele>
        <time>2015-02-01T11:30:35.99Z</time>
      </trkpt>
      <trkpt lat="43.64297" lon="6.96322">
        <ele>187</ele>
        <time>2015-02-01T11:30:37.99Z</time>
      </trkpt>
      <trkpt lat="43.64303" lon="6.9632">
        <ele>187</ele>
        <time>2015-02-01T11:30:39.99Z</time>
      </trkpt>
      <trkpt lat="43.64309" lon="6.96315">
        <ele>187</ele>
        <time>2015-02-01T11:30:41.99Z</time>
      </trkpt>
      <trkpt lat="43.64314" lon="6.9631">
        <ele>187</ele>
        <time>2015-02-01T11:30:43.98Z</time>
      </trkpt>
      <trkpt lat="43.64322" lon="6.96302">
        <ele>187</ele>
        <time>2015-02-01T11:30:46.99Z</time>
      </trkpt>
      <trkpt lat="43.64327" lon="6.96296">
        <ele>187</ele>
        <time>2015-02-01T11:30:48.99Z</time>
      </trkpt>
      <trkpt lat="43.64332" lon="6.96291">
        <ele>187</ele>
        <time>2015-02-01T11:30:50.99Z</time>
      </trkpt>
      <trkpt lat="43.64338" lon="6.96283">
        <ele>187</ele>
        <time>2015-02-01T11:30:53.99Z</time>
      </trkpt>
      <trkpt lat="43.64347" lon="6.96278">
        <ele>187</ele>
        <time>2015-02-01T11:30:56.99Z</time>
      </trkpt>
      <trkpt lat="43.64354" lon="6.96276">
        <ele>187</ele>
        <time>2015-02-01T11:30:58.99Z</time>
      </trkpt>
      <trkpt lat="43.64362" lon="6.96275">
        <ele>187</ele>
        <time>2015-02-01T11:31:00.99Z</time>
      </trkpt>
      <trkpt lat="43.64369" lon="6.96275">
        <ele>187</ele>
        <time>2015-02-01T11:31:02.99Z</time>
      </trkpt>
      <trkpt lat="43.64376" lon="6.96274">
        <ele>187</ele>
        <time>2015-02-01T11:31:04.99Z</time>
      </trkpt>
      <trkpt lat="43.64384" lon="6.96273">
        <ele>187</ele>
        <time>2015-02-01T11:31:06.99Z</time>
      </trkpt>
      <trkpt lat="43.64394" lon="6.9627">
        <ele>187</ele>
        <time>2015-02-01T11:31:09.99Z</time>
      </trkpt>
      <trkpt lat="43.64406" lon="6.96268">
        <ele>187</ele>
        <time>2015-02-01T11:31:12.99Z</time>
      </trkpt>
      <trkpt lat="43.64417" lon="6.9627">
        <ele>187</ele>
        <time>2015-02-01T11:31:15.98Z</time>
      </trkpt>
      <trkpt lat="43.64428" lon="6.96273">
        <ele>187</ele>
        <time>2015-02-01T11:31:19Z</time>
      </trkpt>
      <trkpt lat="43.64437" lon="6.96269">
        <ele>187</ele>
        <time>2015-02-01T11:31:21.99Z</time>
      </trkpt>
      <trkpt lat="43.64444" lon="6.96265">
        <ele>187</ele>
        <time>2015-02-01T11:31:23.99Z</time>
      </trkpt>
      <trkpt lat="43.6445" lon="6.96261">
        <ele>187</ele>
        <time>2015-02-01T11:31:25.99Z</time>
      </trkpt>
      <trkpt lat="43.64457" lon="6.96256">
        <ele>187</ele>
        <time>2015-02-01T11:31:27.99Z</time>
      </trkpt>
      <trkpt lat="43.64464" lon="6.96253">
        <ele>187</ele>
        <time>2015-02-01T11:31:29.99Z</time>
      </trkpt>
      <trkpt lat="43.64471" lon="6.96251">
        <ele>187</ele>
        <time>2015-02-01T11:31:32Z</time>
      </trkpt>
      <trkpt lat="43.64478" lon="6.96249">
        <ele>187</ele>
        <time>2015-02-01T11:31:33.99Z</time>
      </trkpt>
      <trkpt lat="43.64484" lon="6.96247">
        <ele>187</ele>
        <time>2015-02-01T11:31:35.99Z</time>
      </trkpt>
      <trkpt lat="43.64491" lon="6.96245">
        <ele>187</ele>
        <time>2015-02-01T11:31:37.99Z</time>
      </trkpt>
      <trkpt lat="43.64498" lon="6.96243">
        <ele>187</ele>
        <time>2015-02-01T11:31:39.99Z</time>
      </trkpt>
      <trkpt lat="43.64505" lon="6.96241">
        <ele>187</ele>
        <time>2015-02-01T11:31:41.99Z</time>
      </trkpt>
      <trkpt lat="43.64512" lon="6.96239">
        <ele>187</ele>
        <time>2015-02-01T11:31:43.99Z</time>
      </trkpt>
      <trkpt lat="43.64519" lon="6.96237">
        <ele>187</ele>
        <time>2015-02-01T11:31:45.99Z</time>
      </trkpt>
      <trkpt lat="43.64526" lon="6.96235">
        <ele>187</ele>
        <time>2015-02-01T11:31:48Z</time>
      </trkpt>
      <trkpt lat="43.64534" lon="6.96234">
        <ele>187</ele>
        <time>2015-02-01T11:31:49.90Z</time>
      </trkpt>
      <trkpt lat="43.64543" lon="6.96235">
        <ele>186</ele>
        <time>2015-02-01T11:31:52.99Z</time>
      </trkpt>
      <trkpt lat="43.64554" lon="6.96236">
        <ele>186</ele>
        <time>2015-02-01T11:31:55.99Z</time>
      </trkpt>
      <trkpt lat="43.64561" lon="6.96237">
        <ele>186</ele>
        <time>2015-02-01T11:31:57.99Z</time>
      </trkpt>
      <trkpt lat="43.64568" lon="6.96237">
        <ele>186</ele>
        <time>2015-02-01T11:31:59.99Z</time>
      </trkpt>
      <trkpt lat="43.64573" lon="6.96233">
        <ele>187</ele>
        <time>2015-02-01T11:32:01.99Z</time>
      </trkpt>
      <trkpt lat="43.64578" lon="6.96228">
        <ele>187</ele>
        <time>2015-02-01T11:32:03.98Z</time>
      </trkpt>
      <trkpt lat="43.64584" lon="6.96222">
        <ele>187</ele>
        <time>2015-02-01T11:32:06Z</time>
      </trkpt>
      <trkpt lat="43.6459" lon="6.96218">
        <ele>187</ele>
        <time>2015-02-01T11:32:07.99Z</time>
      </trkpt>
      <trkpt lat="43.64597" lon="6.96215">
        <ele>187</ele>
        <time>2015-02-01T11:32:09.99Z</time>
      </trkpt>
      <trkpt lat="43.64603" lon="6.96213">
        <ele>187</ele>
        <time>2015-02-01T11:32:11.99Z</time>
      </trkpt>
      <trkpt lat="43.6461" lon="6.9621">
        <ele>187</ele>
        <time>2015-02-01T11:32:13.99Z</time>
      </trkpt>
      <trkpt lat="43.64616" lon="6.96206">
        <ele>187</ele>
        <time>2015-02-01T11:32:16Z</time>
      </trkpt>
      <trkpt lat="43.64623" lon="6.96203">
        <ele>187</ele>
        <time>2015-02-01T11:32:17.99Z</time>
      </trkpt>
      <trkpt lat="43.64634" lon="6.96201">
        <ele>187</ele>
        <time>2015-02-01T11:32:20.98Z</time>
      </trkpt>
      <trkpt lat="43.64644" lon="6.96203">
        <ele>187</ele>
        <time>2015-02-01T11:32:24Z</time>
      </trkpt>
      <trkpt lat="43.64656" lon="6.96207">
        <ele>187</ele>
        <time>2015-02-01T11:32:27.99Z</time>
      </trkpt>
      <trkpt lat="43.64667" lon="6.96211">
        <ele>187</ele>
        <time>2015-02-01T11:32:30.99Z</time>
      </trkpt>
      <trkpt lat="43.64679" lon="6.96214">
        <ele>187</ele>
        <time>2015-02-01T11:32:33.99Z</time>
      </trkpt>
      <trkpt lat="43.64688" lon="6.96219">
        <ele>187</ele>
        <time>2015-02-01T11:32:36.99Z</time>
      </trkpt>
      <trkpt lat="43.647" lon="6.96222">
        <ele>187</ele>
        <time>2015-02-01T11:32:40.99Z</time>
      </trkpt>
      <trkpt lat="43.64709" lon="6.96221">
        <ele>187</ele>
        <time>2015-02-01T11:32:43.99Z</time>
      </trkpt>
      <trkpt lat="43.64719" lon="6.96217">
        <ele>187</ele>
        <time>2015-02-01T11:32:46.99Z</time>
      </trkpt>
      <trkpt lat="43.64726" lon="6.96214">
        <ele>187</ele>
        <time>2015-02-01T11:32:48.99Z</time>
      </trkpt>
      <trkpt lat="43.64734" lon="6.96212">
        <ele>187</ele>
        <time>2015-02-01T11:32:50.99Z</time>
      </trkpt>
      <trkpt lat="43.64744" lon="6.96209">
        <ele>187</ele>
        <time>2015-02-01T11:32:53.99Z</time>
      </trkpt>
      <trkpt lat="43.64749" lon="6.96204">
        <ele>187</ele>
        <time>2015-02-01T11:33:06.99Z</time>
      </trkpt>
      <trkpt lat="43.64758" lon="6.96199">
        <ele>186</ele>
        <time>2015-02-01T11:36:09.01Z</time>
      </trkpt>
      <trkpt lat="43.64764" lon="6.96188">
        <ele>187</ele>
        <time>2015-02-01T11:36:13.99Z</time>
      </trkpt>
      <trkpt lat="43.64772" lon="6.96175">
        <ele>187</ele>
        <time>2015-02-01T11:36:18.99Z</time>
      </trkpt>
      <trkpt lat="43.64777" lon="6.96163">
        <ele>187</ele>
        <time>2015-02-01T11:36:22.99Z</time>
      </trkpt>
      <trkpt lat="43.64785" lon="6.96153">
        <ele>187</ele>
        <time>2015-02-01T11:36:35.99Z</time>
      </trkpt>
      <trkpt lat="43.64791" lon="6.96143">
        <ele>187</ele>
        <time>2015-02-01T11:36:46.99Z</time>
      </trkpt>
      <trkpt lat="43.64797" lon="6.96132">
        <ele>187</ele>
        <time>2015-02-01T11:36:51.99Z</time>
      </trkpt>
      <trkpt lat="43.64801" lon="6.96119">
        <ele>187</ele>
        <time>2015-02-01T11:36:56.99Z</time>
      </trkpt>
      <trkpt lat="43.64804" lon="6.96108">
        <ele>187</ele>
        <time>2015-02-01T11:37:01.99Z</time>
      </trkpt>
      <trkpt lat="43.64807" lon="6.961">
        <ele>187</ele>
        <time>2015-02-01T11:37:06Z</time>
      </trkpt>
      <trkpt lat="43.64811" lon="6.96096">
        <ele>187</ele>
        <time>2015-02-01T11:37:08.99Z</time>
      </trkpt>
      <trkpt lat="43.64818" lon="6.96089">
        <ele>187</ele>
        <time>2015-02-01T11:37:13.99Z</time>
      </trkpt>
      <trkpt lat="43.64824" lon="6.96086">
        <ele>187</ele>
        <time>2015-02-01T11:37:16.99Z</time>
      </trkpt>
      <trkpt lat="43.64831" lon="6.96084">
        <ele>187</ele>
        <time>2015-02-01T11:37:19.99Z</time>
      </trkpt>
      <trkpt lat="43.64836" lon="6.96083">
        <ele>187</ele>
        <time>2015-02-01T11:37:21.99Z</time>
      </trkpt>
      <trkpt lat="43.64843" lon="6.96082">
        <ele>187</ele>
        <time>2015-02-01T11:37:23.98Z</time>
      </trkpt>
      <trkpt lat="43.64851" lon="6.96082">
        <ele>187</ele>
        <time>2015-02-01T11:37:25.99Z</time>
      </trkpt>
      <trkpt lat="43.64857" lon="6.96081">
        <ele>187</ele>
        <time>2015-02-01T11:37:27.99Z</time>
      </trkpt>
      <trkpt lat="43.64864" lon="6.96081">
        <ele>187</ele>
        <time>2015-02-01T11:37:31.99Z</time>
      </trkpt>
      <trkpt lat="43.64865" lon="6.96095">
        <ele>187</ele>
        <time>2015-02-01T11:37:37.99Z</time>
      </trkpt>
      <trkpt lat="43.64872" lon="6.96103">
        <ele>189</ele>
        <time>2015-02-01T11:37:43.99Z</time>
      </trkpt>
      <trkpt lat="43.64864" lon="6.96089">
        <ele>188</ele>
        <time>2015-02-01T11:38:01.99Z</time>
      </trkpt>
      <trkpt lat="43.64859" lon="6.96078">
        <ele>188</ele>
        <time>2015-02-01T11:38:06Z</time>
      </trkpt>
      <trkpt lat="43.64849" lon="6.9608">
        <ele>187</ele>
        <time>2015-02-01T11:38:20.99Z</time>
      </trkpt>
      <trkpt lat="43.64839" lon="6.96081">
        <ele>187</ele>
        <time>2015-02-01T11:38:24Z</time>
      </trkpt>
      <trkpt lat="43.64829" lon="6.96083">
        <ele>187</ele>
        <time>2015-02-01T11:38:26.99Z</time>
      </trkpt>
      <trkpt lat="43.64821" lon="6.96086">
        <ele>187</ele>
        <time>2015-02-01T11:38:28.99Z</time>
      </trkpt>
      <trkpt lat="43.64815" lon="6.96091">
        <ele>187</ele>
        <time>2015-02-01T11:38:30.99Z</time>
      </trkpt>
      <trkpt lat="43.64806" lon="6.96101">
        <ele>187</ele>
        <time>2015-02-01T11:38:34.01Z</time>
      </trkpt>
      <trkpt lat="43.64801" lon="6.96113">
        <ele>187</ele>
        <time>2015-02-01T11:38:35.95Z</time>
      </trkpt>
      <trkpt lat="43.64797" lon="6.96127">
        <ele>187</ele>
        <time>2015-02-01T11:38:37.99Z</time>
      </trkpt>
      <trkpt lat="43.64792" lon="6.96138">
        <ele>187</ele>
        <time>2015-02-01T11:38:39.99Z</time>
      </trkpt>
      <trkpt lat="43.64785" lon="6.96152">
        <ele>187</ele>
        <time>2015-02-01T11:38:42.99Z</time>
      </trkpt>
      <trkpt lat="43.64793" lon="6.96139">
        <ele>187</ele>
        <time>2015-02-01T11:38:58.99Z</time>
      </trkpt>
      <trkpt lat="43.64801" lon="6.96122">
        <ele>187</ele>
        <time>2015-02-01T11:39:01.99Z</time>
      </trkpt>
      <trkpt lat="43.64805" lon="6.96109">
        <ele>187</ele>
        <time>2015-02-01T11:39:03.99Z</time>
      </trkpt>
      <trkpt lat="43.64811" lon="6.96097">
        <ele>187</ele>
        <time>2015-02-01T11:39:05.99Z</time>
      </trkpt>
      <trkpt lat="43.64819" lon="6.96089">
        <ele>187</ele>
        <time>2015-02-01T11:39:07.99Z</time>
      </trkpt>
      <trkpt lat="43.6483" lon="6.96084">
        <ele>187</ele>
        <time>2015-02-01T11:39:09.99Z</time>
      </trkpt>
      <trkpt lat="43.6484" lon="6.96083">
        <ele>188</ele>
        <time>2015-02-01T11:39:11.99Z</time>
      </trkpt>
      <trkpt lat="43.6485" lon="6.96081">
        <ele>188</ele>
        <time>2015-02-01T11:39:13.99Z</time>
      </trkpt>
      <trkpt lat="43.64859" lon="6.96081">
        <ele>188</ele>
        <time>2015-02-01T11:39:16.99Z</time>
      </trkpt>
      <trkpt lat="43.64867" lon="6.96075">
        <ele>188</ele>
        <time>2015-02-01T11:39:21.99Z</time>
      </trkpt>
      <trkpt lat="43.64869" lon="6.96062">
        <ele>188</ele>
        <time>2015-02-01T11:39:24.99Z</time>
      </trkpt>
      <trkpt lat="43.64866" lon="6.96049">
        <ele>188</ele>
        <time>2015-02-01T11:39:26.99Z</time>
      </trkpt>
      <trkpt lat="43.64862" lon="6.96034">
        <ele>188</ele>
        <time>2015-02-01T11:39:28.99Z</time>
      </trkpt>
      <trkpt lat="43.64857" lon="6.96019">
        <ele>188</ele>
        <time>2015-02-01T11:39:31Z</time>
      </trkpt>
      <trkpt lat="43.64853" lon="6.96003">
        <ele>188</ele>
        <time>2015-02-01T11:39:32.99Z</time>
      </trkpt>
      <trkpt lat="43.64852" lon="6.95987">
        <ele>188</ele>
        <time>2015-02-01T11:39:34.99Z</time>
      </trkpt>
      <trkpt lat="43.64854" lon="6.95972">
        <ele>188</ele>
        <time>2015-02-01T11:39:36.99Z</time>
      </trkpt>
      <trkpt lat="43.64858" lon="6.95958">
        <ele>188</ele>
        <time>2015-02-01T11:39:38.99Z</time>
      </trkpt>
      <trkpt lat="43.64867" lon="6.95949">
        <ele>188.82</ele>
        <time>2015-02-01T11:39:40.99Z</time>
      </trkpt>
      <trkpt lat="43.64878" lon="6.95942">
        <ele>189</ele>
        <time>2015-02-01T11:39:42.99Z</time>
      </trkpt>
      <trkpt lat="43.6489" lon="6.95937">
        <ele>189</ele>
        <time>2015-02-01T11:39:44.99Z</time>
      </trkpt>
      <trkpt lat="43.64901" lon="6.95934">
        <ele>189</ele>
        <time>2015-02-01T11:39:46.99Z</time>
      </trkpt>
      <trkpt lat="43.64911" lon="6.95933">
        <ele>189</ele>
        <time>2015-02-01T11:39:48.99Z</time>
      </trkpt>
      <trkpt lat="43.64917" lon="6.95934">
        <ele>189</ele>
        <time>2015-02-01T11:39:50.99Z</time>
      </trkpt>
      <trkpt lat="43.64921" lon="6.95939">
        <ele>189</ele>
        <time>2015-02-01T11:40:11.99Z</time>
      </trkpt>
      <trkpt lat="43.64927" lon="6.95949">
        <ele>188</ele>
        <time>2015-02-01T11:40:32.99Z</time>
      </trkpt>
      <trkpt lat="43.64935" lon="6.95956">
        <ele>188</ele>
        <time>2015-02-01T11:40:35.98Z</time>
      </trkpt>
      <trkpt lat="43.64944" lon="6.95967">
        <ele>188</ele>
        <time>2015-02-01T11:40:38.99Z</time>
      </trkpt>
      <trkpt lat="43.64953" lon="6.95981">
        <ele>188</ele>
        <time>2015-02-01T11:40:41.99Z</time>
      </trkpt>
      <trkpt lat="43.6496" lon="6.95992">
        <ele>188</ele>
        <time>2015-02-01T11:40:43.99Z</time>
      </trkpt>
      <trkpt lat="43.64965" lon="6.96">
        <ele>188</ele>
        <time>2015-02-01T11:40:45.99Z</time>
      </trkpt>
      <trkpt lat="43.64973" lon="6.96007">
        <ele>188</ele>
        <time>2015-02-01T11:40:52.99Z</time>
      </trkpt>
      <trkpt lat="43.64979" lon="6.96013">
        <ele>188</ele>
        <time>2015-02-01T11:40:59.01Z</time>
      </trkpt>
    </trkseg>
  </trk>
</gpx>